<?xml version="1.0" encoding="UTF-8"?>
<gpx xmlns="http://www.topografix.com/GPX/1/1" xmlns:gpsies="http://www.gpsies.com/GPX/1/0" creator="GPSies http://www.gpsies.com - SORTIE 2 DU FUE" version="1.1" xmlns:xsi="http://www.w3.org/2001/XMLSchema-instance" xsi:schemaLocation="http://www.topografix.com/GPX/1/1 http://www.topografix.com/GPX/1/1/gpx.xsd http://www.gpsies.com/GPX/1/0 http://www.gpsies.com/gpsies.xsd">
  <metadata>
    <name>SORTIE 2 DU FUE</name>
    <copyright author="GPSies.com" />
    <link href="http://www.gpsies.com/map.do?fileId=onljteimlswyctay">
      <text>SORTIE 2 DU FUE on GPSies.com</text>
    </link>
    <time>2010-06-22T23:16:59Z</time>
    <extensions>
      <gpsies:property>round trip</gpsies:property>
      <gpsies:trackLengthMeter>57214.0712185745</gpsies:trackLengthMeter>
      <gpsies:totalAscentMeter>1364.0</gpsies:totalAscentMeter>
      <gpsies:totalDescentMeter>1363.0</gpsies:totalDescentMeter>
      <gpsies:minHeightMeter>445.0</gpsies:minHeightMeter>
      <gpsies:maxHeightMeter>1154.0</gpsies:maxHeightMeter>
    </extensions>
  </metadata>
  <trk>
    <name>SORTIE 2 DU FUE on GPSies.com</name>
    <link href="http://www.gpsies.com/map.do?fileId=onljteimlswyctay" />
    <trkseg>
      <trkpt lat="45.90535950" lon="6.142559050">
        <ele>446.00000</ele>
        <time>2010-06-22T23:16:59Z</time>
      </trkpt>
      <trkpt lat="45.90533000" lon="6.142520000">
        <ele>446.00000</ele>
        <time>2010-06-22T23:17:00Z</time>
      </trkpt>
      <trkpt lat="45.90511000" lon="6.142650000">
        <ele>446.00000</ele>
        <time>2010-06-22T23:17:10Z</time>
      </trkpt>
      <trkpt lat="45.90513000" lon="6.143140000">
        <ele>446.00000</ele>
        <time>2010-06-22T23:17:23Z</time>
      </trkpt>
      <trkpt lat="45.90510000" lon="6.143550000">
        <ele>446.00000</ele>
        <time>2010-06-22T23:17:35Z</time>
      </trkpt>
      <trkpt lat="45.90502000" lon="6.143970000">
        <ele>447.00000</ele>
        <time>2010-06-22T23:17:47Z</time>
      </trkpt>
      <trkpt lat="45.90474000" lon="6.144800000">
        <ele>447.00000</ele>
        <time>2010-06-22T23:18:13Z</time>
      </trkpt>
      <trkpt lat="45.90462000" lon="6.145450000">
        <ele>447.00000</ele>
        <time>2010-06-22T23:18:31Z</time>
      </trkpt>
      <trkpt lat="45.90458000" lon="6.146170000">
        <ele>446.00000</ele>
        <time>2010-06-22T23:18:52Z</time>
      </trkpt>
      <trkpt lat="45.90459000" lon="6.146680000">
        <ele>447.00000</ele>
        <time>2010-06-22T23:19:06Z</time>
      </trkpt>
      <trkpt lat="45.90553000" lon="6.153260000">
        <ele>446.00000</ele>
        <time>2010-06-22T23:22:13Z</time>
      </trkpt>
      <trkpt lat="45.90584000" lon="6.155250000">
        <ele>446.00000</ele>
        <time>2010-06-22T23:23:10Z</time>
      </trkpt>
      <trkpt lat="45.90598000" lon="6.155940000">
        <ele>445.00000</ele>
        <time>2010-06-22T23:23:30Z</time>
      </trkpt>
      <trkpt lat="45.90585000" lon="6.156990000">
        <ele>445.00000</ele>
        <time>2010-06-22T23:23:59Z</time>
      </trkpt>
      <trkpt lat="45.90551000" lon="6.158230000">
        <ele>448.00000</ele>
        <time>2010-06-22T23:24:37Z</time>
      </trkpt>
      <trkpt lat="45.90546000" lon="6.158290000">
        <ele>448.00000</ele>
        <time>2010-06-22T23:24:39Z</time>
      </trkpt>
      <trkpt lat="45.90546000" lon="6.158420000">
        <ele>448.00000</ele>
        <time>2010-06-22T23:24:43Z</time>
      </trkpt>
      <trkpt lat="45.90485000" lon="6.159190000">
        <ele>447.00000</ele>
        <time>2010-06-22T23:25:15Z</time>
      </trkpt>
      <trkpt lat="45.90448000" lon="6.159530000">
        <ele>445.00000</ele>
        <time>2010-06-22T23:25:33Z</time>
      </trkpt>
      <trkpt lat="45.90417000" lon="6.159720000">
        <ele>448.00000</ele>
        <time>2010-06-22T23:25:46Z</time>
      </trkpt>
      <trkpt lat="45.90222000" lon="6.160550000">
        <ele>449.00000</ele>
        <time>2010-06-22T23:27:08Z</time>
      </trkpt>
      <trkpt lat="45.90096000" lon="6.161290000">
        <ele>451.00000</ele>
        <time>2010-06-22T23:28:02Z</time>
      </trkpt>
      <trkpt lat="45.89975000" lon="6.161720000">
        <ele>448.00000</ele>
        <time>2010-06-22T23:28:52Z</time>
      </trkpt>
      <trkpt lat="45.89946000" lon="6.161870000">
        <ele>446.00000</ele>
        <time>2010-06-22T23:29:04Z</time>
      </trkpt>
      <trkpt lat="45.89877000" lon="6.162380000">
        <ele>455.00000</ele>
        <time>2010-06-22T23:29:36Z</time>
      </trkpt>
      <trkpt lat="45.89845000" lon="6.162730000">
        <ele>447.00000</ele>
        <time>2010-06-22T23:29:52Z</time>
      </trkpt>
      <trkpt lat="45.89607000" lon="6.165730000">
        <ele>454.00000</ele>
        <time>2010-06-22T23:31:58Z</time>
      </trkpt>
      <trkpt lat="45.89506000" lon="6.166850000">
        <ele>453.00000</ele>
        <time>2010-06-22T23:32:49Z</time>
      </trkpt>
      <trkpt lat="45.89425000" lon="6.168010000">
        <ele>463.00000</ele>
        <time>2010-06-22T23:33:35Z</time>
      </trkpt>
      <trkpt lat="45.89409000" lon="6.168180000">
        <ele>463.00000</ele>
        <time>2010-06-22T23:33:43Z</time>
      </trkpt>
      <trkpt lat="45.89376000" lon="6.168450000">
        <ele>463.00000</ele>
        <time>2010-06-22T23:33:58Z</time>
      </trkpt>
      <trkpt lat="45.89324000" lon="6.168710000">
        <ele>456.00000</ele>
        <time>2010-06-22T23:34:20Z</time>
      </trkpt>
      <trkpt lat="45.89286000" lon="6.168830000">
        <ele>456.00000</ele>
        <time>2010-06-22T23:34:36Z</time>
      </trkpt>
      <trkpt lat="45.89231000" lon="6.169130000">
        <ele>456.00000</ele>
        <time>2010-06-22T23:35:00Z</time>
      </trkpt>
      <trkpt lat="45.89195000" lon="6.169470000">
        <ele>451.00000</ele>
        <time>2010-06-22T23:35:17Z</time>
      </trkpt>
      <trkpt lat="45.89181000" lon="6.169700000">
        <ele>456.00000</ele>
        <time>2010-06-22T23:35:25Z</time>
      </trkpt>
      <trkpt lat="45.89137000" lon="6.170850000">
        <ele>463.00000</ele>
        <time>2010-06-22T23:36:02Z</time>
      </trkpt>
      <trkpt lat="45.89093000" lon="6.171460000">
        <ele>462.00000</ele>
        <time>2010-06-22T23:36:26Z</time>
      </trkpt>
      <trkpt lat="45.88972000" lon="6.172940000">
        <ele>480.00000</ele>
        <time>2010-06-22T23:37:30Z</time>
      </trkpt>
      <trkpt lat="45.88900000" lon="6.173360000">
        <ele>465.00000</ele>
        <time>2010-06-22T23:38:01Z</time>
      </trkpt>
      <trkpt lat="45.88831000" lon="6.174020000">
        <ele>466.00000</ele>
        <time>2010-06-22T23:38:34Z</time>
      </trkpt>
      <trkpt lat="45.88750000" lon="6.174300000">
        <ele>459.00000</ele>
        <time>2010-06-22T23:39:08Z</time>
      </trkpt>
      <trkpt lat="45.88748000" lon="6.174220000">
        <ele>459.00000</ele>
        <time>2010-06-22T23:39:10Z</time>
      </trkpt>
      <trkpt lat="45.88737000" lon="6.174160000">
        <ele>459.00000</ele>
        <time>2010-06-22T23:39:15Z</time>
      </trkpt>
      <trkpt lat="45.88729000" lon="6.174230000">
        <ele>459.00000</ele>
        <time>2010-06-22T23:39:18Z</time>
      </trkpt>
      <trkpt lat="45.88728000" lon="6.174370000">
        <ele>459.00000</ele>
        <time>2010-06-22T23:39:22Z</time>
      </trkpt>
      <trkpt lat="45.88673000" lon="6.174510000">
        <ele>456.00000</ele>
        <time>2010-06-22T23:39:45Z</time>
      </trkpt>
      <trkpt lat="45.88640000" lon="6.174720000">
        <ele>464.00000</ele>
        <time>2010-06-22T23:39:59Z</time>
      </trkpt>
      <trkpt lat="45.88492000" lon="6.176220000">
        <ele>465.00000</ele>
        <time>2010-06-22T23:41:12Z</time>
      </trkpt>
      <trkpt lat="45.88477000" lon="6.176270000">
        <ele>474.00000</ele>
        <time>2010-06-22T23:41:18Z</time>
      </trkpt>
      <trkpt lat="45.88475000" lon="6.176370000">
        <ele>474.00000</ele>
        <time>2010-06-22T23:41:21Z</time>
      </trkpt>
      <trkpt lat="45.88365000" lon="6.177640000">
        <ele>474.00000</ele>
        <time>2010-06-22T23:42:17Z</time>
      </trkpt>
      <trkpt lat="45.88326000" lon="6.177950000">
        <ele>482.00000</ele>
        <time>2010-06-22T23:42:35Z</time>
      </trkpt>
      <trkpt lat="45.88278000" lon="6.178250000">
        <ele>477.00000</ele>
        <time>2010-06-22T23:42:56Z</time>
      </trkpt>
      <trkpt lat="45.88215000" lon="6.178420000">
        <ele>477.00000</ele>
        <time>2010-06-22T23:43:22Z</time>
      </trkpt>
      <trkpt lat="45.88180000" lon="6.178430000">
        <ele>473.00000</ele>
        <time>2010-06-22T23:43:36Z</time>
      </trkpt>
      <trkpt lat="45.88160000" lon="6.178530000">
        <ele>473.00000</ele>
        <time>2010-06-22T23:43:44Z</time>
      </trkpt>
      <trkpt lat="45.88132000" lon="6.178760000">
        <ele>480.00000</ele>
        <time>2010-06-22T23:43:57Z</time>
      </trkpt>
      <trkpt lat="45.88051000" lon="6.179660000">
        <ele>486.00000</ele>
        <time>2010-06-22T23:44:38Z</time>
      </trkpt>
      <trkpt lat="45.88008000" lon="6.180060000">
        <ele>479.00000</ele>
        <time>2010-06-22T23:44:59Z</time>
      </trkpt>
      <trkpt lat="45.87940000" lon="6.180280000">
        <ele>476.00000</ele>
        <time>2010-06-22T23:45:26Z</time>
      </trkpt>
      <trkpt lat="45.87872000" lon="6.180620000">
        <ele>479.00000</ele>
        <time>2010-06-22T23:45:55Z</time>
      </trkpt>
      <trkpt lat="45.87575000" lon="6.181900000">
        <ele>478.00000</ele>
        <time>2010-06-22T23:47:59Z</time>
      </trkpt>
      <trkpt lat="45.87389000" lon="6.182360000">
        <ele>481.00000</ele>
        <time>2010-06-22T23:49:15Z</time>
      </trkpt>
      <trkpt lat="45.87298000" lon="6.182700000">
        <ele>477.00000</ele>
        <time>2010-06-22T23:49:53Z</time>
      </trkpt>
      <trkpt lat="45.87148000" lon="6.183500000">
        <ele>474.00000</ele>
        <time>2010-06-22T23:50:57Z</time>
      </trkpt>
      <trkpt lat="45.86830000" lon="6.185470000">
        <ele>469.00000</ele>
        <time>2010-06-22T23:53:15Z</time>
      </trkpt>
      <trkpt lat="45.86713000" lon="6.186450000">
        <ele>470.00000</ele>
        <time>2010-06-22T23:54:10Z</time>
      </trkpt>
      <trkpt lat="45.86395000" lon="6.189820000">
        <ele>466.00000</ele>
        <time>2010-06-22T23:56:48Z</time>
      </trkpt>
      <trkpt lat="45.86297000" lon="6.190760000">
        <ele>467.00000</ele>
        <time>2010-06-22T23:57:35Z</time>
      </trkpt>
      <trkpt lat="45.86192000" lon="6.191540000">
        <ele>465.00000</ele>
        <time>2010-06-22T23:58:22Z</time>
      </trkpt>
      <trkpt lat="45.86166000" lon="6.191830000">
        <ele>465.00000</ele>
        <time>2010-06-22T23:58:35Z</time>
      </trkpt>
      <trkpt lat="45.86129000" lon="6.192380000">
        <ele>468.00000</ele>
        <time>2010-06-22T23:58:57Z</time>
      </trkpt>
      <trkpt lat="45.86104000" lon="6.192960000">
        <ele>468.00000</ele>
        <time>2010-06-22T23:59:16Z</time>
      </trkpt>
      <trkpt lat="45.86101000" lon="6.193180000">
        <ele>468.00000</ele>
        <time>2010-06-22T23:59:22Z</time>
      </trkpt>
      <trkpt lat="45.86102000" lon="6.193840000">
        <ele>470.00000</ele>
        <time>2010-06-22T23:59:40Z</time>
      </trkpt>
      <trkpt lat="45.86092000" lon="6.194080000">
        <ele>470.00000</ele>
        <time>2010-06-22T23:59:48Z</time>
      </trkpt>
      <trkpt lat="45.86085000" lon="6.194790000">
        <ele>472.00000</ele>
        <time>2010-06-23T00:00:08Z</time>
      </trkpt>
      <trkpt lat="45.86091000" lon="6.194940000">
        <ele>472.00000</ele>
        <time>2010-06-23T00:00:13Z</time>
      </trkpt>
      <trkpt lat="45.86088000" lon="6.195050000">
        <ele>472.00000</ele>
        <time>2010-06-23T00:00:16Z</time>
      </trkpt>
      <trkpt lat="45.86076000" lon="6.195210000">
        <ele>472.00000</ele>
        <time>2010-06-23T00:00:23Z</time>
      </trkpt>
      <trkpt lat="45.86023000" lon="6.195720000">
        <ele>475.00000</ele>
        <time>2010-06-23T00:00:48Z</time>
      </trkpt>
      <trkpt lat="45.85829000" lon="6.197070000">
        <ele>478.00000</ele>
        <time>2010-06-23T00:02:15Z</time>
      </trkpt>
      <trkpt lat="45.85802000" lon="6.197560000">
        <ele>482.00000</ele>
        <time>2010-06-23T00:02:32Z</time>
      </trkpt>
      <trkpt lat="45.85783000" lon="6.197740000">
        <ele>491.00000</ele>
        <time>2010-06-23T00:02:41Z</time>
      </trkpt>
      <trkpt lat="45.85764000" lon="6.197810000">
        <ele>491.00000</ele>
        <time>2010-06-23T00:02:49Z</time>
      </trkpt>
      <trkpt lat="45.85730000" lon="6.197780000">
        <ele>491.00000</ele>
        <time>2010-06-23T00:03:03Z</time>
      </trkpt>
      <trkpt lat="45.85676000" lon="6.197370000">
        <ele>500.00000</ele>
        <time>2010-06-23T00:03:27Z</time>
      </trkpt>
      <trkpt lat="45.85662000" lon="6.197320000">
        <ele>500.00000</ele>
        <time>2010-06-23T00:03:33Z</time>
      </trkpt>
      <trkpt lat="45.85611000" lon="6.197350000">
        <ele>499.00000</ele>
        <time>2010-06-23T00:03:53Z</time>
      </trkpt>
      <trkpt lat="45.85590000" lon="6.197490000">
        <ele>499.00000</ele>
        <time>2010-06-23T00:04:03Z</time>
      </trkpt>
      <trkpt lat="45.85499000" lon="6.198830000">
        <ele>507.00000</ele>
        <time>2010-06-23T00:04:55Z</time>
      </trkpt>
      <trkpt lat="45.85363000" lon="6.201780000">
        <ele>517.00000</ele>
        <time>2010-06-23T00:06:33Z</time>
      </trkpt>
      <trkpt lat="45.85341000" lon="6.202370000">
        <ele>518.00000</ele>
        <time>2010-06-23T00:06:52Z</time>
      </trkpt>
      <trkpt lat="45.85334000" lon="6.202740000">
        <ele>518.00000</ele>
        <time>2010-06-23T00:07:03Z</time>
      </trkpt>
      <trkpt lat="45.85322000" lon="6.203890000">
        <ele>523.00000</ele>
        <time>2010-06-23T00:07:35Z</time>
      </trkpt>
      <trkpt lat="45.85308000" lon="6.204710000">
        <ele>530.00000</ele>
        <time>2010-06-23T00:07:59Z</time>
      </trkpt>
      <trkpt lat="45.85199000" lon="6.206170000">
        <ele>538.00000</ele>
        <time>2010-06-23T00:08:58Z</time>
      </trkpt>
      <trkpt lat="45.84991000" lon="6.208730000">
        <ele>541.00000</ele>
        <time>2010-06-23T00:10:48Z</time>
      </trkpt>
      <trkpt lat="45.84922000" lon="6.210060000">
        <ele>549.00000</ele>
        <time>2010-06-23T00:11:34Z</time>
      </trkpt>
      <trkpt lat="45.84851000" lon="6.211260000">
        <ele>555.00000</ele>
        <time>2010-06-23T00:12:18Z</time>
      </trkpt>
      <trkpt lat="45.84712000" lon="6.213790000">
        <ele>558.00000</ele>
        <time>2010-06-23T00:13:48Z</time>
      </trkpt>
      <trkpt lat="45.84693000" lon="6.214010000">
        <ele>558.00000</ele>
        <time>2010-06-23T00:13:58Z</time>
      </trkpt>
      <trkpt lat="45.84670000" lon="6.214100000">
        <ele>558.00000</ele>
        <time>2010-06-23T00:14:07Z</time>
      </trkpt>
      <trkpt lat="45.84641000" lon="6.213840000">
        <ele>558.00000</ele>
        <time>2010-06-23T00:14:21Z</time>
      </trkpt>
      <trkpt lat="45.84548000" lon="6.212630000">
        <ele>559.00000</ele>
        <time>2010-06-23T00:15:11Z</time>
      </trkpt>
      <trkpt lat="45.84532000" lon="6.212500000">
        <ele>552.00000</ele>
        <time>2010-06-23T00:15:19Z</time>
      </trkpt>
      <trkpt lat="45.84524000" lon="6.212500000">
        <ele>552.00000</ele>
        <time>2010-06-23T00:15:22Z</time>
      </trkpt>
      <trkpt lat="45.84503000" lon="6.212620000">
        <ele>552.00000</ele>
        <time>2010-06-23T00:15:31Z</time>
      </trkpt>
      <trkpt lat="45.84456000" lon="6.213560000">
        <ele>524.00000</ele>
        <time>2010-06-23T00:16:03Z</time>
      </trkpt>
      <trkpt lat="45.84431000" lon="6.213890000">
        <ele>522.00000</ele>
        <time>2010-06-23T00:16:17Z</time>
      </trkpt>
      <trkpt lat="45.84426000" lon="6.213860000">
        <ele>522.00000</ele>
        <time>2010-06-23T00:16:19Z</time>
      </trkpt>
      <trkpt lat="45.84430000" lon="6.212440000">
        <ele>527.00000</ele>
        <time>2010-06-23T00:16:59Z</time>
      </trkpt>
      <trkpt lat="45.84428000" lon="6.212210000">
        <ele>527.00000</ele>
        <time>2010-06-23T00:17:05Z</time>
      </trkpt>
      <trkpt lat="45.84397000" lon="6.211590000">
        <ele>529.00000</ele>
        <time>2010-06-23T00:17:26Z</time>
      </trkpt>
      <trkpt lat="45.84375000" lon="6.210840000">
        <ele>532.00000</ele>
        <time>2010-06-23T00:17:49Z</time>
      </trkpt>
      <trkpt lat="45.84362000" lon="6.210690000">
        <ele>497.00000</ele>
        <time>2010-06-23T00:17:56Z</time>
      </trkpt>
      <trkpt lat="45.84348000" lon="6.210700000">
        <ele>497.00000</ele>
        <time>2010-06-23T00:18:01Z</time>
      </trkpt>
      <trkpt lat="45.84340000" lon="6.211260000">
        <ele>496.00000</ele>
        <time>2010-06-23T00:18:17Z</time>
      </trkpt>
      <trkpt lat="45.84345000" lon="6.211980000">
        <ele>496.00000</ele>
        <time>2010-06-23T00:18:37Z</time>
      </trkpt>
      <trkpt lat="45.84342000" lon="6.212230000">
        <ele>496.00000</ele>
        <time>2010-06-23T00:18:45Z</time>
      </trkpt>
      <trkpt lat="45.84336000" lon="6.212400000">
        <ele>496.00000</ele>
        <time>2010-06-23T00:18:50Z</time>
      </trkpt>
      <trkpt lat="45.84317000" lon="6.212710000">
        <ele>496.00000</ele>
        <time>2010-06-23T00:19:01Z</time>
      </trkpt>
      <trkpt lat="45.84280000" lon="6.213040000">
        <ele>471.00000</ele>
        <time>2010-06-23T00:19:19Z</time>
      </trkpt>
      <trkpt lat="45.84227000" lon="6.214520000">
        <ele>477.00000</ele>
        <time>2010-06-23T00:20:05Z</time>
      </trkpt>
      <trkpt lat="45.84204000" lon="6.214890000">
        <ele>480.00000</ele>
        <time>2010-06-23T00:20:19Z</time>
      </trkpt>
      <trkpt lat="45.84171000" lon="6.215270000">
        <ele>480.00000</ele>
        <time>2010-06-23T00:20:36Z</time>
      </trkpt>
      <trkpt lat="45.84103000" lon="6.215890000">
        <ele>480.00000</ele>
        <time>2010-06-23T00:21:08Z</time>
      </trkpt>
      <trkpt lat="45.83991000" lon="6.216670000">
        <ele>480.00000</ele>
        <time>2010-06-23T00:21:58Z</time>
      </trkpt>
      <trkpt lat="45.83974000" lon="6.216730000">
        <ele>480.00000</ele>
        <time>2010-06-23T00:22:05Z</time>
      </trkpt>
      <trkpt lat="45.83965000" lon="6.216670000">
        <ele>480.00000</ele>
        <time>2010-06-23T00:22:09Z</time>
      </trkpt>
      <trkpt lat="45.83960000" lon="6.216760000">
        <ele>480.00000</ele>
        <time>2010-06-23T00:22:12Z</time>
      </trkpt>
      <trkpt lat="45.83961000" lon="6.216820000">
        <ele>480.00000</ele>
        <time>2010-06-23T00:22:14Z</time>
      </trkpt>
      <trkpt lat="45.83907000" lon="6.217010000">
        <ele>476.00000</ele>
        <time>2010-06-23T00:22:36Z</time>
      </trkpt>
      <trkpt lat="45.83820000" lon="6.217010000">
        <ele>474.00000</ele>
        <time>2010-06-23T00:23:11Z</time>
      </trkpt>
      <trkpt lat="45.83681000" lon="6.216910000">
        <ele>455.00000</ele>
        <time>2010-06-23T00:24:07Z</time>
      </trkpt>
      <trkpt lat="45.83679000" lon="6.216850000">
        <ele>455.00000</ele>
        <time>2010-06-23T00:24:09Z</time>
      </trkpt>
      <trkpt lat="45.83673000" lon="6.216890000">
        <ele>455.00000</ele>
        <time>2010-06-23T00:24:11Z</time>
      </trkpt>
      <trkpt lat="45.83559000" lon="6.216900000">
        <ele>450.00000</ele>
        <time>2010-06-23T00:24:57Z</time>
      </trkpt>
      <trkpt lat="45.83532000" lon="6.216860000">
        <ele>447.00000</ele>
        <time>2010-06-23T00:25:08Z</time>
      </trkpt>
      <trkpt lat="45.83446000" lon="6.216960000">
        <ele>445.00000</ele>
        <time>2010-06-23T00:25:42Z</time>
      </trkpt>
      <trkpt lat="45.83377000" lon="6.217270000">
        <ele>450.00000</ele>
        <time>2010-06-23T00:26:11Z</time>
      </trkpt>
      <trkpt lat="45.83352000" lon="6.217430000">
        <ele>446.00000</ele>
        <time>2010-06-23T00:26:22Z</time>
      </trkpt>
      <trkpt lat="45.83329000" lon="6.217710000">
        <ele>446.00000</ele>
        <time>2010-06-23T00:26:34Z</time>
      </trkpt>
      <trkpt lat="45.83277000" lon="6.218830000">
        <ele>460.00000</ele>
        <time>2010-06-23T00:27:12Z</time>
      </trkpt>
      <trkpt lat="45.83251000" lon="6.219240000">
        <ele>460.00000</ele>
        <time>2010-06-23T00:27:27Z</time>
      </trkpt>
      <trkpt lat="45.83189000" lon="6.219730000">
        <ele>469.00000</ele>
        <time>2010-06-23T00:27:56Z</time>
      </trkpt>
      <trkpt lat="45.82964000" lon="6.220890000">
        <ele>463.00000</ele>
        <time>2010-06-23T00:29:31Z</time>
      </trkpt>
      <trkpt lat="45.82934000" lon="6.220970000">
        <ele>456.00000</ele>
        <time>2010-06-23T00:29:43Z</time>
      </trkpt>
      <trkpt lat="45.82852000" lon="6.221050000">
        <ele>452.00000</ele>
        <time>2010-06-23T00:30:16Z</time>
      </trkpt>
      <trkpt lat="45.82748000" lon="6.221280000">
        <ele>452.00000</ele>
        <time>2010-06-23T00:30:59Z</time>
      </trkpt>
      <trkpt lat="45.82652000" lon="6.221700000">
        <ele>449.00000</ele>
        <time>2010-06-23T00:31:39Z</time>
      </trkpt>
      <trkpt lat="45.82631000" lon="6.221860000">
        <ele>449.00000</ele>
        <time>2010-06-23T00:31:48Z</time>
      </trkpt>
      <trkpt lat="45.82614000" lon="6.222030000">
        <ele>448.00000</ele>
        <time>2010-06-23T00:31:56Z</time>
      </trkpt>
      <trkpt lat="45.82582000" lon="6.222480000">
        <ele>449.00000</ele>
        <time>2010-06-23T00:32:14Z</time>
      </trkpt>
      <trkpt lat="45.82400000" lon="6.225570000">
        <ele>456.00000</ele>
        <time>2010-06-23T00:34:07Z</time>
      </trkpt>
      <trkpt lat="45.82337000" lon="6.226510000">
        <ele>463.00000</ele>
        <time>2010-06-23T00:34:44Z</time>
      </trkpt>
      <trkpt lat="45.82316000" lon="6.226730000">
        <ele>463.00000</ele>
        <time>2010-06-23T00:34:54Z</time>
      </trkpt>
      <trkpt lat="45.82295000" lon="6.226860000">
        <ele>463.00000</ele>
        <time>2010-06-23T00:35:03Z</time>
      </trkpt>
      <trkpt lat="45.82255000" lon="6.227000000">
        <ele>453.00000</ele>
        <time>2010-06-23T00:35:20Z</time>
      </trkpt>
      <trkpt lat="45.82214000" lon="6.226970000">
        <ele>453.00000</ele>
        <time>2010-06-23T00:35:36Z</time>
      </trkpt>
      <trkpt lat="45.82168000" lon="6.226720000">
        <ele>448.00000</ele>
        <time>2010-06-23T00:35:56Z</time>
      </trkpt>
      <trkpt lat="45.82156000" lon="6.226730000">
        <ele>448.00000</ele>
        <time>2010-06-23T00:36:01Z</time>
      </trkpt>
      <trkpt lat="45.82093000" lon="6.227130000">
        <ele>450.00000</ele>
        <time>2010-06-23T00:36:28Z</time>
      </trkpt>
      <trkpt lat="45.82003000" lon="6.228220000">
        <ele>453.00000</ele>
        <time>2010-06-23T00:37:15Z</time>
      </trkpt>
      <trkpt lat="45.81953000" lon="6.228560000">
        <ele>447.00000</ele>
        <time>2010-06-23T00:37:38Z</time>
      </trkpt>
      <trkpt lat="45.81880000" lon="6.228690000">
        <ele>447.00000</ele>
        <time>2010-06-23T00:38:07Z</time>
      </trkpt>
      <trkpt lat="45.81792000" lon="6.229070000">
        <ele>449.00000</ele>
        <time>2010-06-23T00:38:44Z</time>
      </trkpt>
      <trkpt lat="45.81777000" lon="6.229090000">
        <ele>447.00000</ele>
        <time>2010-06-23T00:38:50Z</time>
      </trkpt>
      <trkpt lat="45.81728000" lon="6.228920000">
        <ele>447.00000</ele>
        <time>2010-06-23T00:39:10Z</time>
      </trkpt>
      <trkpt lat="45.81623000" lon="6.228900000">
        <ele>446.00000</ele>
        <time>2010-06-23T00:39:52Z</time>
      </trkpt>
      <trkpt lat="45.81589000" lon="6.229050000">
        <ele>446.00000</ele>
        <time>2010-06-23T00:40:06Z</time>
      </trkpt>
      <trkpt lat="45.81493000" lon="6.229760000">
        <ele>449.00000</ele>
        <time>2010-06-23T00:40:49Z</time>
      </trkpt>
      <trkpt lat="45.81398000" lon="6.230670000">
        <ele>460.00000</ele>
        <time>2010-06-23T00:41:35Z</time>
      </trkpt>
      <trkpt lat="45.81385000" lon="6.230670000">
        <ele>460.00000</ele>
        <time>2010-06-23T00:41:40Z</time>
      </trkpt>
      <trkpt lat="45.81337000" lon="6.230440000">
        <ele>456.00000</ele>
        <time>2010-06-23T00:42:01Z</time>
      </trkpt>
      <trkpt lat="45.81292000" lon="6.230400000">
        <ele>446.00000</ele>
        <time>2010-06-23T00:42:19Z</time>
      </trkpt>
      <trkpt lat="45.81218000" lon="6.230670000">
        <ele>453.00000</ele>
        <time>2010-06-23T00:42:49Z</time>
      </trkpt>
      <trkpt lat="45.81170000" lon="6.230970000">
        <ele>450.00000</ele>
        <time>2010-06-23T00:43:10Z</time>
      </trkpt>
      <trkpt lat="45.81100000" lon="6.231030000">
        <ele>447.00000</ele>
        <time>2010-06-23T00:43:38Z</time>
      </trkpt>
      <trkpt lat="45.80949000" lon="6.231480000">
        <ele>451.00000</ele>
        <time>2010-06-23T00:44:40Z</time>
      </trkpt>
      <trkpt lat="45.80891000" lon="6.231460000">
        <ele>451.00000</ele>
        <time>2010-06-23T00:45:03Z</time>
      </trkpt>
      <trkpt lat="45.80842000" lon="6.231640000">
        <ele>448.00000</ele>
        <time>2010-06-23T00:45:24Z</time>
      </trkpt>
      <trkpt lat="45.80820000" lon="6.231770000">
        <ele>448.00000</ele>
        <time>2010-06-23T00:45:33Z</time>
      </trkpt>
      <trkpt lat="45.80764000" lon="6.231850000">
        <ele>447.00000</ele>
        <time>2010-06-23T00:45:56Z</time>
      </trkpt>
      <trkpt lat="45.80723000" lon="6.232020000">
        <ele>447.00000</ele>
        <time>2010-06-23T00:46:13Z</time>
      </trkpt>
      <trkpt lat="45.80674000" lon="6.231850000">
        <ele>446.00000</ele>
        <time>2010-06-23T00:46:33Z</time>
      </trkpt>
      <trkpt lat="45.80662000" lon="6.231850000">
        <ele>446.00000</ele>
        <time>2010-06-23T00:46:38Z</time>
      </trkpt>
      <trkpt lat="45.80600000" lon="6.232100000">
        <ele>467.00000</ele>
        <time>2010-06-23T00:47:03Z</time>
      </trkpt>
      <trkpt lat="45.80585000" lon="6.232100000">
        <ele>467.00000</ele>
        <time>2010-06-23T00:47:09Z</time>
      </trkpt>
      <trkpt lat="45.80542000" lon="6.231670000">
        <ele>448.00000</ele>
        <time>2010-06-23T00:47:30Z</time>
      </trkpt>
      <trkpt lat="45.80492000" lon="6.231520000">
        <ele>452.00000</ele>
        <time>2010-06-23T00:47:51Z</time>
      </trkpt>
      <trkpt lat="45.80477000" lon="6.231420000">
        <ele>452.00000</ele>
        <time>2010-06-23T00:47:57Z</time>
      </trkpt>
      <trkpt lat="45.80337000" lon="6.230220000">
        <ele>446.00000</ele>
        <time>2010-06-23T00:49:03Z</time>
      </trkpt>
      <trkpt lat="45.80280000" lon="6.229780000">
        <ele>447.00000</ele>
        <time>2010-06-23T00:49:29Z</time>
      </trkpt>
      <trkpt lat="45.80159000" lon="6.229010000">
        <ele>446.00000</ele>
        <time>2010-06-23T00:50:22Z</time>
      </trkpt>
      <trkpt lat="45.80120000" lon="6.228920000">
        <ele>445.00000</ele>
        <time>2010-06-23T00:50:37Z</time>
      </trkpt>
      <trkpt lat="45.80077000" lon="6.228920000">
        <ele>445.00000</ele>
        <time>2010-06-23T00:50:55Z</time>
      </trkpt>
      <trkpt lat="45.80041000" lon="6.228990000">
        <ele>445.00000</ele>
        <time>2010-06-23T00:51:09Z</time>
      </trkpt>
      <trkpt lat="45.79997000" lon="6.229260000">
        <ele>445.00000</ele>
        <time>2010-06-23T00:51:28Z</time>
      </trkpt>
      <trkpt lat="45.79958000" lon="6.229720000">
        <ele>447.00000</ele>
        <time>2010-06-23T00:51:49Z</time>
      </trkpt>
      <trkpt lat="45.79870000" lon="6.230920000">
        <ele>449.00000</ele>
        <time>2010-06-23T00:52:37Z</time>
      </trkpt>
      <trkpt lat="45.79848000" lon="6.231090000">
        <ele>449.00000</ele>
        <time>2010-06-23T00:52:47Z</time>
      </trkpt>
      <trkpt lat="45.79822000" lon="6.231210000">
        <ele>449.00000</ele>
        <time>2010-06-23T00:52:58Z</time>
      </trkpt>
      <trkpt lat="45.79720000" lon="6.231460000">
        <ele>452.00000</ele>
        <time>2010-06-23T00:53:40Z</time>
      </trkpt>
      <trkpt lat="45.79471000" lon="6.231950000">
        <ele>449.00000</ele>
        <time>2010-06-23T00:55:20Z</time>
      </trkpt>
      <trkpt lat="45.79330000" lon="6.232210000">
        <ele>452.00000</ele>
        <time>2010-06-23T00:56:17Z</time>
      </trkpt>
      <trkpt lat="45.79314000" lon="6.232200000">
        <ele>452.00000</ele>
        <time>2010-06-23T00:56:23Z</time>
      </trkpt>
      <trkpt lat="45.79252000" lon="6.231850000">
        <ele>448.00000</ele>
        <time>2010-06-23T00:56:50Z</time>
      </trkpt>
      <trkpt lat="45.79214000" lon="6.231460000">
        <ele>448.00000</ele>
        <time>2010-06-23T00:57:09Z</time>
      </trkpt>
      <trkpt lat="45.79202000" lon="6.231410000">
        <ele>448.00000</ele>
        <time>2010-06-23T00:57:14Z</time>
      </trkpt>
      <trkpt lat="45.79113000" lon="6.231450000">
        <ele>448.00000</ele>
        <time>2010-06-23T00:57:50Z</time>
      </trkpt>
      <trkpt lat="45.78973000" lon="6.231660000">
        <ele>448.00000</ele>
        <time>2010-06-23T00:58:46Z</time>
      </trkpt>
      <trkpt lat="45.78587000" lon="6.230400000">
        <ele>453.00000</ele>
        <time>2010-06-23T01:01:24Z</time>
      </trkpt>
      <trkpt lat="45.78524000" lon="6.230490000">
        <ele>453.00000</ele>
        <time>2010-06-23T01:01:50Z</time>
      </trkpt>
      <trkpt lat="45.78489000" lon="6.230600000">
        <ele>453.00000</ele>
        <time>2010-06-23T01:02:04Z</time>
      </trkpt>
      <trkpt lat="45.78416000" lon="6.230690000">
        <ele>455.00000</ele>
        <time>2010-06-23T01:02:33Z</time>
      </trkpt>
      <trkpt lat="45.78372000" lon="6.230660000">
        <ele>456.00000</ele>
        <time>2010-06-23T01:02:51Z</time>
      </trkpt>
      <trkpt lat="45.78319000" lon="6.230510000">
        <ele>456.00000</ele>
        <time>2010-06-23T01:03:13Z</time>
      </trkpt>
      <trkpt lat="45.78248000" lon="6.229700000">
        <ele>459.00000</ele>
        <time>2010-06-23T01:03:49Z</time>
      </trkpt>
      <trkpt lat="45.78161000" lon="6.228570000">
        <ele>462.00000</ele>
        <time>2010-06-23T01:04:36Z</time>
      </trkpt>
      <trkpt lat="45.78163000" lon="6.228420000">
        <ele>462.00000</ele>
        <time>2010-06-23T01:04:40Z</time>
      </trkpt>
      <trkpt lat="45.78156000" lon="6.228320000">
        <ele>462.00000</ele>
        <time>2010-06-23T01:04:44Z</time>
      </trkpt>
      <trkpt lat="45.78148000" lon="6.228300000">
        <ele>462.00000</ele>
        <time>2010-06-23T01:04:47Z</time>
      </trkpt>
      <trkpt lat="45.78139000" lon="6.228370000">
        <ele>462.00000</ele>
        <time>2010-06-23T01:04:51Z</time>
      </trkpt>
      <trkpt lat="45.78138000" lon="6.228530000">
        <ele>462.00000</ele>
        <time>2010-06-23T01:04:56Z</time>
      </trkpt>
      <trkpt lat="45.78001000" lon="6.230200000">
        <ele>465.00000</ele>
        <time>2010-06-23T01:06:08Z</time>
      </trkpt>
      <trkpt lat="45.77975000" lon="6.230660000">
        <ele>464.00000</ele>
        <time>2010-06-23T01:06:24Z</time>
      </trkpt>
      <trkpt lat="45.77877000" lon="6.231900000">
        <ele>467.00000</ele>
        <time>2010-06-23T01:07:17Z</time>
      </trkpt>
      <trkpt lat="45.77866000" lon="6.231940000">
        <ele>470.00000</ele>
        <time>2010-06-23T01:07:21Z</time>
      </trkpt>
      <trkpt lat="45.77795000" lon="6.232900000">
        <ele>469.00000</ele>
        <time>2010-06-23T01:08:00Z</time>
      </trkpt>
      <trkpt lat="45.77693000" lon="6.234090000">
        <ele>469.00000</ele>
        <time>2010-06-23T01:08:53Z</time>
      </trkpt>
      <trkpt lat="45.77662000" lon="6.234520000">
        <ele>469.00000</ele>
        <time>2010-06-23T01:09:10Z</time>
      </trkpt>
      <trkpt lat="45.77660000" lon="6.234680000">
        <ele>466.00000</ele>
        <time>2010-06-23T01:09:15Z</time>
      </trkpt>
      <trkpt lat="45.77593000" lon="6.235600000">
        <ele>465.00000</ele>
        <time>2010-06-23T01:09:52Z</time>
      </trkpt>
      <trkpt lat="45.77014000" lon="6.243250000">
        <ele>472.00000</ele>
        <time>2010-06-23T01:15:07Z</time>
      </trkpt>
      <trkpt lat="45.76832000" lon="6.245760000">
        <ele>479.00000</ele>
        <time>2010-06-23T01:16:48Z</time>
      </trkpt>
      <trkpt lat="45.76568000" lon="6.248990000">
        <ele>480.00000</ele>
        <time>2010-06-23T01:19:07Z</time>
      </trkpt>
      <trkpt lat="45.76545000" lon="6.249380000">
        <ele>480.00000</ele>
        <time>2010-06-23T01:19:21Z</time>
      </trkpt>
      <trkpt lat="45.76425000" lon="6.252150000">
        <ele>479.00000</ele>
        <time>2010-06-23T01:20:53Z</time>
      </trkpt>
      <trkpt lat="45.76411000" lon="6.252280000">
        <ele>479.00000</ele>
        <time>2010-06-23T01:20:59Z</time>
      </trkpt>
      <trkpt lat="45.76373000" lon="6.253180000">
        <ele>479.00000</ele>
        <time>2010-06-23T01:21:29Z</time>
      </trkpt>
      <trkpt lat="45.76279000" lon="6.255540000">
        <ele>478.00000</ele>
        <time>2010-06-23T01:22:44Z</time>
      </trkpt>
      <trkpt lat="45.76338000" lon="6.255750000">
        <ele>479.00000</ele>
        <time>2010-06-23T01:23:09Z</time>
      </trkpt>
      <trkpt lat="45.76426000" lon="6.255920000">
        <ele>479.00000</ele>
        <time>2010-06-23T01:23:44Z</time>
      </trkpt>
      <trkpt lat="45.76451000" lon="6.256110000">
        <ele>479.00000</ele>
        <time>2010-06-23T01:23:56Z</time>
      </trkpt>
      <trkpt lat="45.76521000" lon="6.256920000">
        <ele>479.00000</ele>
        <time>2010-06-23T01:24:32Z</time>
      </trkpt>
      <trkpt lat="45.76584000" lon="6.257260000">
        <ele>481.00000</ele>
        <time>2010-06-23T01:24:59Z</time>
      </trkpt>
      <trkpt lat="45.76607000" lon="6.257440000">
        <ele>481.00000</ele>
        <time>2010-06-23T01:25:09Z</time>
      </trkpt>
      <trkpt lat="45.76626000" lon="6.257740000">
        <ele>484.00000</ele>
        <time>2010-06-23T01:25:20Z</time>
      </trkpt>
      <trkpt lat="45.76655000" lon="6.258360000">
        <ele>486.00000</ele>
        <time>2010-06-23T01:25:41Z</time>
      </trkpt>
      <trkpt lat="45.76687000" lon="6.258630000">
        <ele>486.00000</ele>
        <time>2010-06-23T01:25:56Z</time>
      </trkpt>
      <trkpt lat="45.76746000" lon="6.259250000">
        <ele>492.00000</ele>
        <time>2010-06-23T01:26:25Z</time>
      </trkpt>
      <trkpt lat="45.76754000" lon="6.259400000">
        <ele>492.00000</ele>
        <time>2010-06-23T01:26:31Z</time>
      </trkpt>
      <trkpt lat="45.76764000" lon="6.260090000">
        <ele>494.00000</ele>
        <time>2010-06-23T01:26:50Z</time>
      </trkpt>
      <trkpt lat="45.76769000" lon="6.260170000">
        <ele>494.00000</ele>
        <time>2010-06-23T01:26:53Z</time>
      </trkpt>
      <trkpt lat="45.76780000" lon="6.260290000">
        <ele>494.00000</ele>
        <time>2010-06-23T01:26:59Z</time>
      </trkpt>
      <trkpt lat="45.76813000" lon="6.260410000">
        <ele>497.00000</ele>
        <time>2010-06-23T01:27:13Z</time>
      </trkpt>
      <trkpt lat="45.76829000" lon="6.260200000">
        <ele>497.00000</ele>
        <time>2010-06-23T01:27:21Z</time>
      </trkpt>
      <trkpt lat="45.76884000" lon="6.260120000">
        <ele>499.00000</ele>
        <time>2010-06-23T01:27:43Z</time>
      </trkpt>
      <trkpt lat="45.76918000" lon="6.259920000">
        <ele>499.00000</ele>
        <time>2010-06-23T01:27:58Z</time>
      </trkpt>
      <trkpt lat="45.76933000" lon="6.259760000">
        <ele>499.00000</ele>
        <time>2010-06-23T01:28:06Z</time>
      </trkpt>
      <trkpt lat="45.76945000" lon="6.259550000">
        <ele>498.00000</ele>
        <time>2010-06-23T01:28:13Z</time>
      </trkpt>
      <trkpt lat="45.77044000" lon="6.256840000">
        <ele>542.00000</ele>
        <time>2010-06-23T01:29:39Z</time>
      </trkpt>
      <trkpt lat="45.77065000" lon="6.256380000">
        <ele>542.00000</ele>
        <time>2010-06-23T01:29:54Z</time>
      </trkpt>
      <trkpt lat="45.77078000" lon="6.255730000">
        <ele>532.00000</ele>
        <time>2010-06-23T01:30:13Z</time>
      </trkpt>
      <trkpt lat="45.77086000" lon="6.255570000">
        <ele>532.00000</ele>
        <time>2010-06-23T01:30:18Z</time>
      </trkpt>
      <trkpt lat="45.77134000" lon="6.255020000">
        <ele>563.00000</ele>
        <time>2010-06-23T01:30:43Z</time>
      </trkpt>
      <trkpt lat="45.77219000" lon="6.252950000">
        <ele>582.00000</ele>
        <time>2010-06-23T01:31:50Z</time>
      </trkpt>
      <trkpt lat="45.77237000" lon="6.252620000">
        <ele>584.00000</ele>
        <time>2010-06-23T01:32:02Z</time>
      </trkpt>
      <trkpt lat="45.77248000" lon="6.252040000">
        <ele>589.00000</ele>
        <time>2010-06-23T01:32:18Z</time>
      </trkpt>
      <trkpt lat="45.77252000" lon="6.251970000">
        <ele>589.00000</ele>
        <time>2010-06-23T01:32:21Z</time>
      </trkpt>
      <trkpt lat="45.77258000" lon="6.251960000">
        <ele>589.00000</ele>
        <time>2010-06-23T01:32:23Z</time>
      </trkpt>
      <trkpt lat="45.77266000" lon="6.252100000">
        <ele>584.00000</ele>
        <time>2010-06-23T01:32:28Z</time>
      </trkpt>
      <trkpt lat="45.77267000" lon="6.252270000">
        <ele>584.00000</ele>
        <time>2010-06-23T01:32:33Z</time>
      </trkpt>
      <trkpt lat="45.77262000" lon="6.252970000">
        <ele>582.00000</ele>
        <time>2010-06-23T01:32:53Z</time>
      </trkpt>
      <trkpt lat="45.77290000" lon="6.253520000">
        <ele>582.00000</ele>
        <time>2010-06-23T01:33:12Z</time>
      </trkpt>
      <trkpt lat="45.77293000" lon="6.253820000">
        <ele>622.00000</ele>
        <time>2010-06-23T01:33:20Z</time>
      </trkpt>
      <trkpt lat="45.77266000" lon="6.255390000">
        <ele>603.00000</ele>
        <time>2010-06-23T01:34:05Z</time>
      </trkpt>
      <trkpt lat="45.77255000" lon="6.255790000">
        <ele>620.00000</ele>
        <time>2010-06-23T01:34:17Z</time>
      </trkpt>
      <trkpt lat="45.77237000" lon="6.256140000">
        <ele>620.00000</ele>
        <time>2010-06-23T01:34:30Z</time>
      </trkpt>
      <trkpt lat="45.77175000" lon="6.257880000">
        <ele>592.00000</ele>
        <time>2010-06-23T01:35:24Z</time>
      </trkpt>
      <trkpt lat="45.77174000" lon="6.257990000">
        <ele>572.00000</ele>
        <time>2010-06-23T01:35:27Z</time>
      </trkpt>
      <trkpt lat="45.77179000" lon="6.258170000">
        <ele>572.00000</ele>
        <time>2010-06-23T01:35:33Z</time>
      </trkpt>
      <trkpt lat="45.77193000" lon="6.258340000">
        <ele>572.00000</ele>
        <time>2010-06-23T01:35:40Z</time>
      </trkpt>
      <trkpt lat="45.77222000" lon="6.258540000">
        <ele>600.00000</ele>
        <time>2010-06-23T01:35:53Z</time>
      </trkpt>
      <trkpt lat="45.77354000" lon="6.258620000">
        <ele>628.00000</ele>
        <time>2010-06-23T01:36:46Z</time>
      </trkpt>
      <trkpt lat="45.77405000" lon="6.258750000">
        <ele>676.00000</ele>
        <time>2010-06-23T01:37:07Z</time>
      </trkpt>
      <trkpt lat="45.77453000" lon="6.259120000">
        <ele>620.00000</ele>
        <time>2010-06-23T01:37:28Z</time>
      </trkpt>
      <trkpt lat="45.77522000" lon="6.259290000">
        <ele>654.00000</ele>
        <time>2010-06-23T01:37:56Z</time>
      </trkpt>
      <trkpt lat="45.77561000" lon="6.259640000">
        <ele>640.00000</ele>
        <time>2010-06-23T01:38:15Z</time>
      </trkpt>
      <trkpt lat="45.77615000" lon="6.259840000">
        <ele>640.00000</ele>
        <time>2010-06-23T01:38:37Z</time>
      </trkpt>
      <trkpt lat="45.77663000" lon="6.260240000">
        <ele>656.00000</ele>
        <time>2010-06-23T01:38:59Z</time>
      </trkpt>
      <trkpt lat="45.77720000" lon="6.260340000">
        <ele>665.00000</ele>
        <time>2010-06-23T01:39:22Z</time>
      </trkpt>
      <trkpt lat="45.77770000" lon="6.260190000">
        <ele>665.00000</ele>
        <time>2010-06-23T01:39:43Z</time>
      </trkpt>
      <trkpt lat="45.77833000" lon="6.260230000">
        <ele>677.00000</ele>
        <time>2010-06-23T01:40:08Z</time>
      </trkpt>
      <trkpt lat="45.77881000" lon="6.260140000">
        <ele>680.00000</ele>
        <time>2010-06-23T01:40:27Z</time>
      </trkpt>
      <trkpt lat="45.77940000" lon="6.260250000">
        <ele>680.00000</ele>
        <time>2010-06-23T01:40:51Z</time>
      </trkpt>
      <trkpt lat="45.77959000" lon="6.260240000">
        <ele>689.00000</ele>
        <time>2010-06-23T01:40:59Z</time>
      </trkpt>
      <trkpt lat="45.78039000" lon="6.259710000">
        <ele>689.00000</ele>
        <time>2010-06-23T01:41:34Z</time>
      </trkpt>
      <trkpt lat="45.78094000" lon="6.259580000">
        <ele>712.00000</ele>
        <time>2010-06-23T01:41:56Z</time>
      </trkpt>
      <trkpt lat="45.78168000" lon="6.259530000">
        <ele>724.00000</ele>
        <time>2010-06-23T01:42:26Z</time>
      </trkpt>
      <trkpt lat="45.78252000" lon="6.258990000">
        <ele>737.00000</ele>
        <time>2010-06-23T01:43:03Z</time>
      </trkpt>
      <trkpt lat="45.78281000" lon="6.258910000">
        <ele>737.00000</ele>
        <time>2010-06-23T01:43:15Z</time>
      </trkpt>
      <trkpt lat="45.78370000" lon="6.259050000">
        <ele>744.00000</ele>
        <time>2010-06-23T01:43:51Z</time>
      </trkpt>
      <trkpt lat="45.78555000" lon="6.259110000">
        <ele>776.00000</ele>
        <time>2010-06-23T01:45:05Z</time>
      </trkpt>
      <trkpt lat="45.78599000" lon="6.259300000">
        <ele>776.00000</ele>
        <time>2010-06-23T01:45:23Z</time>
      </trkpt>
      <trkpt lat="45.78670000" lon="6.259790000">
        <ele>780.00000</ele>
        <time>2010-06-23T01:45:55Z</time>
      </trkpt>
      <trkpt lat="45.78701000" lon="6.259840000">
        <ele>780.00000</ele>
        <time>2010-06-23T01:46:07Z</time>
      </trkpt>
      <trkpt lat="45.78719000" lon="6.259680000">
        <ele>782.00000</ele>
        <time>2010-06-23T01:46:16Z</time>
      </trkpt>
      <trkpt lat="45.78767000" lon="6.258690000">
        <ele>794.00000</ele>
        <time>2010-06-23T01:46:49Z</time>
      </trkpt>
      <trkpt lat="45.78778000" lon="6.258600000">
        <ele>794.00000</ele>
        <time>2010-06-23T01:46:54Z</time>
      </trkpt>
      <trkpt lat="45.78826000" lon="6.258440000">
        <ele>798.00000</ele>
        <time>2010-06-23T01:47:14Z</time>
      </trkpt>
      <trkpt lat="45.78910000" lon="6.258350000">
        <ele>800.00000</ele>
        <time>2010-06-23T01:47:48Z</time>
      </trkpt>
      <trkpt lat="45.78976000" lon="6.258390000">
        <ele>810.00000</ele>
        <time>2010-06-23T01:48:14Z</time>
      </trkpt>
      <trkpt lat="45.79020000" lon="6.258540000">
        <ele>810.00000</ele>
        <time>2010-06-23T01:48:32Z</time>
      </trkpt>
      <trkpt lat="45.79049000" lon="6.258850000">
        <ele>820.00000</ele>
        <time>2010-06-23T01:48:47Z</time>
      </trkpt>
      <trkpt lat="45.79061000" lon="6.259270000">
        <ele>820.00000</ele>
        <time>2010-06-23T01:48:59Z</time>
      </trkpt>
      <trkpt lat="45.79092000" lon="6.259640000">
        <ele>832.00000</ele>
        <time>2010-06-23T01:49:16Z</time>
      </trkpt>
      <trkpt lat="45.79112000" lon="6.259740000">
        <ele>832.00000</ele>
        <time>2010-06-23T01:49:24Z</time>
      </trkpt>
      <trkpt lat="45.79150000" lon="6.259830000">
        <ele>836.00000</ele>
        <time>2010-06-23T01:49:39Z</time>
      </trkpt>
      <trkpt lat="45.79194000" lon="6.260310000">
        <ele>836.00000</ele>
        <time>2010-06-23T01:50:02Z</time>
      </trkpt>
      <trkpt lat="45.79217000" lon="6.260460000">
        <ele>857.00000</ele>
        <time>2010-06-23T01:50:12Z</time>
      </trkpt>
      <trkpt lat="45.79273000" lon="6.260340000">
        <ele>844.00000</ele>
        <time>2010-06-23T01:50:34Z</time>
      </trkpt>
      <trkpt lat="45.79308000" lon="6.260460000">
        <ele>882.00000</ele>
        <time>2010-06-23T01:50:49Z</time>
      </trkpt>
      <trkpt lat="45.79324000" lon="6.260450000">
        <ele>882.00000</ele>
        <time>2010-06-23T01:50:55Z</time>
      </trkpt>
      <trkpt lat="45.79385000" lon="6.260090000">
        <ele>877.00000</ele>
        <time>2010-06-23T01:51:22Z</time>
      </trkpt>
      <trkpt lat="45.79410000" lon="6.260040000">
        <ele>877.00000</ele>
        <time>2010-06-23T01:51:32Z</time>
      </trkpt>
      <trkpt lat="45.79453000" lon="6.260190000">
        <ele>877.00000</ele>
        <time>2010-06-23T01:51:49Z</time>
      </trkpt>
      <trkpt lat="45.79482000" lon="6.260420000">
        <ele>894.00000</ele>
        <time>2010-06-23T01:52:03Z</time>
      </trkpt>
      <trkpt lat="45.79497000" lon="6.260420000">
        <ele>894.00000</ele>
        <time>2010-06-23T01:52:09Z</time>
      </trkpt>
      <trkpt lat="45.79510000" lon="6.260360000">
        <ele>884.00000</ele>
        <time>2010-06-23T01:52:14Z</time>
      </trkpt>
      <trkpt lat="45.79534000" lon="6.260060000">
        <ele>884.00000</ele>
        <time>2010-06-23T01:52:27Z</time>
      </trkpt>
      <trkpt lat="45.79552000" lon="6.259880000">
        <ele>890.00000</ele>
        <time>2010-06-23T01:52:36Z</time>
      </trkpt>
      <trkpt lat="45.79562000" lon="6.259840000">
        <ele>890.00000</ele>
        <time>2010-06-23T01:52:40Z</time>
      </trkpt>
      <trkpt lat="45.79577000" lon="6.259920000">
        <ele>890.00000</ele>
        <time>2010-06-23T01:52:46Z</time>
      </trkpt>
      <trkpt lat="45.79580000" lon="6.259990000">
        <ele>890.00000</ele>
        <time>2010-06-23T01:52:49Z</time>
      </trkpt>
      <trkpt lat="45.79582000" lon="6.260080000">
        <ele>890.00000</ele>
        <time>2010-06-23T01:52:51Z</time>
      </trkpt>
      <trkpt lat="45.79576000" lon="6.260480000">
        <ele>899.00000</ele>
        <time>2010-06-23T01:53:03Z</time>
      </trkpt>
      <trkpt lat="45.79577000" lon="6.260560000">
        <ele>899.00000</ele>
        <time>2010-06-23T01:53:05Z</time>
      </trkpt>
      <trkpt lat="45.79585000" lon="6.260650000">
        <ele>899.00000</ele>
        <time>2010-06-23T01:53:09Z</time>
      </trkpt>
      <trkpt lat="45.79620000" lon="6.260610000">
        <ele>899.00000</ele>
        <time>2010-06-23T01:53:23Z</time>
      </trkpt>
      <trkpt lat="45.79645000" lon="6.260710000">
        <ele>912.00000</ele>
        <time>2010-06-23T01:53:33Z</time>
      </trkpt>
      <trkpt lat="45.79675000" lon="6.260730000">
        <ele>912.00000</ele>
        <time>2010-06-23T01:53:45Z</time>
      </trkpt>
      <trkpt lat="45.79708000" lon="6.260990000">
        <ele>912.00000</ele>
        <time>2010-06-23T01:54:00Z</time>
      </trkpt>
      <trkpt lat="45.79720000" lon="6.260890000">
        <ele>928.00000</ele>
        <time>2010-06-23T01:54:06Z</time>
      </trkpt>
      <trkpt lat="45.79728000" lon="6.260420000">
        <ele>928.00000</ele>
        <time>2010-06-23T01:54:20Z</time>
      </trkpt>
      <trkpt lat="45.79737000" lon="6.260350000">
        <ele>908.00000</ele>
        <time>2010-06-23T01:54:24Z</time>
      </trkpt>
      <trkpt lat="45.79743000" lon="6.260380000">
        <ele>908.00000</ele>
        <time>2010-06-23T01:54:26Z</time>
      </trkpt>
      <trkpt lat="45.79775000" lon="6.260880000">
        <ele>928.00000</ele>
        <time>2010-06-23T01:54:45Z</time>
      </trkpt>
      <trkpt lat="45.79778000" lon="6.261060000">
        <ele>928.00000</ele>
        <time>2010-06-23T01:54:50Z</time>
      </trkpt>
      <trkpt lat="45.79773000" lon="6.261450000">
        <ele>944.00000</ele>
        <time>2010-06-23T01:55:01Z</time>
      </trkpt>
      <trkpt lat="45.79803000" lon="6.262520000">
        <ele>972.00000</ele>
        <time>2010-06-23T01:55:34Z</time>
      </trkpt>
      <trkpt lat="45.79810000" lon="6.263060000">
        <ele>986.00000</ele>
        <time>2010-06-23T01:55:49Z</time>
      </trkpt>
      <trkpt lat="45.79800000" lon="6.263550000">
        <ele>986.00000</ele>
        <time>2010-06-23T01:56:03Z</time>
      </trkpt>
      <trkpt lat="45.79775000" lon="6.264040000">
        <ele>978.00000</ele>
        <time>2010-06-23T01:56:20Z</time>
      </trkpt>
      <trkpt lat="45.79747000" lon="6.264720000">
        <ele>990.00000</ele>
        <time>2010-06-23T01:56:42Z</time>
      </trkpt>
      <trkpt lat="45.79747000" lon="6.264830000">
        <ele>990.00000</ele>
        <time>2010-06-23T01:56:45Z</time>
      </trkpt>
      <trkpt lat="45.79753000" lon="6.264900000">
        <ele>990.00000</ele>
        <time>2010-06-23T01:56:48Z</time>
      </trkpt>
      <trkpt lat="45.79763000" lon="6.264880000">
        <ele>990.00000</ele>
        <time>2010-06-23T01:56:52Z</time>
      </trkpt>
      <trkpt lat="45.79786000" lon="6.264560000">
        <ele>978.00000</ele>
        <time>2010-06-23T01:57:05Z</time>
      </trkpt>
      <trkpt lat="45.79816000" lon="6.264280000">
        <ele>996.00000</ele>
        <time>2010-06-23T01:57:19Z</time>
      </trkpt>
      <trkpt lat="45.79843000" lon="6.263910000">
        <ele>996.00000</ele>
        <time>2010-06-23T01:57:34Z</time>
      </trkpt>
      <trkpt lat="45.79862000" lon="6.263840000">
        <ele>996.00000</ele>
        <time>2010-06-23T01:57:42Z</time>
      </trkpt>
      <trkpt lat="45.79899000" lon="6.263800000">
        <ele>1012.0000</ele>
        <time>2010-06-23T01:57:57Z</time>
      </trkpt>
      <trkpt lat="45.79999000" lon="6.263460000">
        <ele>1017.0000</ele>
        <time>2010-06-23T01:58:38Z</time>
      </trkpt>
      <trkpt lat="45.80025000" lon="6.263250000">
        <ele>1017.0000</ele>
        <time>2010-06-23T01:58:50Z</time>
      </trkpt>
      <trkpt lat="45.80058000" lon="6.262880000">
        <ele>1015.0000</ele>
        <time>2010-06-23T01:59:07Z</time>
      </trkpt>
      <trkpt lat="45.80072000" lon="6.262800000">
        <ele>1015.0000</ele>
        <time>2010-06-23T01:59:13Z</time>
      </trkpt>
      <trkpt lat="45.80093000" lon="6.262780000">
        <ele>1015.0000</ele>
        <time>2010-06-23T01:59:21Z</time>
      </trkpt>
      <trkpt lat="45.80137000" lon="6.262870000">
        <ele>1015.0000</ele>
        <time>2010-06-23T01:59:39Z</time>
      </trkpt>
      <trkpt lat="45.80186000" lon="6.263110000">
        <ele>1028.0000</ele>
        <time>2010-06-23T02:00:00Z</time>
      </trkpt>
      <trkpt lat="45.80190000" lon="6.263170000">
        <ele>1028.0000</ele>
        <time>2010-06-23T02:00:02Z</time>
      </trkpt>
      <trkpt lat="45.80194000" lon="6.263640000">
        <ele>1028.0000</ele>
        <time>2010-06-23T02:00:15Z</time>
      </trkpt>
      <trkpt lat="45.80204000" lon="6.263780000">
        <ele>1041.0000</ele>
        <time>2010-06-23T02:00:21Z</time>
      </trkpt>
      <trkpt lat="45.80228000" lon="6.263870000">
        <ele>1043.0000</ele>
        <time>2010-06-23T02:00:31Z</time>
      </trkpt>
      <trkpt lat="45.80256000" lon="6.263800000">
        <ele>1043.0000</ele>
        <time>2010-06-23T02:00:42Z</time>
      </trkpt>
      <trkpt lat="45.80341000" lon="6.263390000">
        <ele>1036.0000</ele>
        <time>2010-06-23T02:01:18Z</time>
      </trkpt>
      <trkpt lat="45.80368000" lon="6.263400000">
        <ele>1036.0000</ele>
        <time>2010-06-23T02:01:29Z</time>
      </trkpt>
      <trkpt lat="45.80407000" lon="6.263600000">
        <ele>1043.0000</ele>
        <time>2010-06-23T02:01:46Z</time>
      </trkpt>
      <trkpt lat="45.80420000" lon="6.263610000">
        <ele>1043.0000</ele>
        <time>2010-06-23T02:01:51Z</time>
      </trkpt>
      <trkpt lat="45.80440000" lon="6.263580000">
        <ele>1043.0000</ele>
        <time>2010-06-23T02:01:59Z</time>
      </trkpt>
      <trkpt lat="45.80497000" lon="6.263290000">
        <ele>1044.0000</ele>
        <time>2010-06-23T02:02:23Z</time>
      </trkpt>
      <trkpt lat="45.80532000" lon="6.263180000">
        <ele>1044.0000</ele>
        <time>2010-06-23T02:02:37Z</time>
      </trkpt>
      <trkpt lat="45.80544000" lon="6.263200000">
        <ele>1041.0000</ele>
        <time>2010-06-23T02:02:42Z</time>
      </trkpt>
      <trkpt lat="45.80567000" lon="6.263610000">
        <ele>1041.0000</ele>
        <time>2010-06-23T02:02:57Z</time>
      </trkpt>
      <trkpt lat="45.80588000" lon="6.263890000">
        <ele>1053.0000</ele>
        <time>2010-06-23T02:03:08Z</time>
      </trkpt>
      <trkpt lat="45.80645000" lon="6.264320000">
        <ele>1053.0000</ele>
        <time>2010-06-23T02:03:34Z</time>
      </trkpt>
      <trkpt lat="45.80654000" lon="6.264330000">
        <ele>1053.0000</ele>
        <time>2010-06-23T02:03:38Z</time>
      </trkpt>
      <trkpt lat="45.80670000" lon="6.264220000">
        <ele>1053.0000</ele>
        <time>2010-06-23T02:03:45Z</time>
      </trkpt>
      <trkpt lat="45.80699000" lon="6.263020000">
        <ele>1042.0000</ele>
        <time>2010-06-23T02:04:20Z</time>
      </trkpt>
      <trkpt lat="45.80714000" lon="6.262680000">
        <ele>1041.0000</ele>
        <time>2010-06-23T02:04:32Z</time>
      </trkpt>
      <trkpt lat="45.80810000" lon="6.261960000">
        <ele>1039.0000</ele>
        <time>2010-06-23T02:05:15Z</time>
      </trkpt>
      <trkpt lat="45.80881000" lon="6.261640000">
        <ele>1042.0000</ele>
        <time>2010-06-23T02:05:45Z</time>
      </trkpt>
      <trkpt lat="45.80939000" lon="6.261460000">
        <ele>1042.0000</ele>
        <time>2010-06-23T02:06:09Z</time>
      </trkpt>
      <trkpt lat="45.80973000" lon="6.261180000">
        <ele>1040.0000</ele>
        <time>2010-06-23T02:06:24Z</time>
      </trkpt>
      <trkpt lat="45.80984000" lon="6.260880000">
        <ele>1040.0000</ele>
        <time>2010-06-23T02:06:34Z</time>
      </trkpt>
      <trkpt lat="45.80987000" lon="6.260680000">
        <ele>1040.0000</ele>
        <time>2010-06-23T02:06:39Z</time>
      </trkpt>
      <trkpt lat="45.80986000" lon="6.260310000">
        <ele>1040.0000</ele>
        <time>2010-06-23T02:06:50Z</time>
      </trkpt>
      <trkpt lat="45.80975000" lon="6.260070000">
        <ele>1040.0000</ele>
        <time>2010-06-23T02:06:58Z</time>
      </trkpt>
      <trkpt lat="45.80851000" lon="6.259380000">
        <ele>1042.0000</ele>
        <time>2010-06-23T02:07:51Z</time>
      </trkpt>
      <trkpt lat="45.80831000" lon="6.259210000">
        <ele>1042.0000</ele>
        <time>2010-06-23T02:08:00Z</time>
      </trkpt>
      <trkpt lat="45.80743000" lon="6.258230000">
        <ele>1047.0000</ele>
        <time>2010-06-23T02:08:45Z</time>
      </trkpt>
      <trkpt lat="45.80689000" lon="6.257730000">
        <ele>1037.0000</ele>
        <time>2010-06-23T02:09:11Z</time>
      </trkpt>
      <trkpt lat="45.80653000" lon="6.257120000">
        <ele>1037.0000</ele>
        <time>2010-06-23T02:09:33Z</time>
      </trkpt>
      <trkpt lat="45.80647000" lon="6.256900000">
        <ele>1049.0000</ele>
        <time>2010-06-23T02:09:39Z</time>
      </trkpt>
      <trkpt lat="45.80644000" lon="6.256550000">
        <ele>1049.0000</ele>
        <time>2010-06-23T02:09:49Z</time>
      </trkpt>
      <trkpt lat="45.80644000" lon="6.256120000">
        <ele>1055.0000</ele>
        <time>2010-06-23T02:10:01Z</time>
      </trkpt>
      <trkpt lat="45.80658000" lon="6.255090000">
        <ele>1057.0000</ele>
        <time>2010-06-23T02:10:31Z</time>
      </trkpt>
      <trkpt lat="45.80653000" lon="6.254570000">
        <ele>1060.0000</ele>
        <time>2010-06-23T02:10:45Z</time>
      </trkpt>
      <trkpt lat="45.80655000" lon="6.254070000">
        <ele>1060.0000</ele>
        <time>2010-06-23T02:10:59Z</time>
      </trkpt>
      <trkpt lat="45.80669000" lon="6.253420000">
        <ele>1062.0000</ele>
        <time>2010-06-23T02:11:18Z</time>
      </trkpt>
      <trkpt lat="45.80686000" lon="6.252890000">
        <ele>1063.0000</ele>
        <time>2010-06-23T02:11:35Z</time>
      </trkpt>
      <trkpt lat="45.80748000" lon="6.251680000">
        <ele>1088.0000</ele>
        <time>2010-06-23T02:12:16Z</time>
      </trkpt>
      <trkpt lat="45.80776000" lon="6.250670000">
        <ele>1084.0000</ele>
        <time>2010-06-23T02:12:47Z</time>
      </trkpt>
      <trkpt lat="45.80782000" lon="6.250020000">
        <ele>1085.0000</ele>
        <time>2010-06-23T02:13:05Z</time>
      </trkpt>
      <trkpt lat="45.80809000" lon="6.249240000">
        <ele>1119.0000</ele>
        <time>2010-06-23T02:13:29Z</time>
      </trkpt>
      <trkpt lat="45.80802000" lon="6.249050000">
        <ele>1119.0000</ele>
        <time>2010-06-23T02:13:35Z</time>
      </trkpt>
      <trkpt lat="45.80787000" lon="6.248970000">
        <ele>1094.0000</ele>
        <time>2010-06-23T02:13:42Z</time>
      </trkpt>
      <trkpt lat="45.80764000" lon="6.248700000">
        <ele>1108.0000</ele>
        <time>2010-06-23T02:13:54Z</time>
      </trkpt>
      <trkpt lat="45.80758000" lon="6.248250000">
        <ele>1108.0000</ele>
        <time>2010-06-23T02:14:06Z</time>
      </trkpt>
      <trkpt lat="45.80759000" lon="6.247950000">
        <ele>1108.0000</ele>
        <time>2010-06-23T02:14:15Z</time>
      </trkpt>
      <trkpt lat="45.80806000" lon="6.246090000">
        <ele>1147.0000</ele>
        <time>2010-06-23T02:15:10Z</time>
      </trkpt>
      <trkpt lat="45.80815000" lon="6.245630000">
        <ele>1147.0000</ele>
        <time>2010-06-23T02:15:23Z</time>
      </trkpt>
      <trkpt lat="45.80817000" lon="6.245200000">
        <ele>1154.0000</ele>
        <time>2010-06-23T02:15:35Z</time>
      </trkpt>
      <trkpt lat="45.80836000" lon="6.244900000">
        <ele>1154.0000</ele>
        <time>2010-06-23T02:15:47Z</time>
      </trkpt>
      <trkpt lat="45.80950000" lon="6.244000000">
        <ele>1131.0000</ele>
        <time>2010-06-23T02:16:39Z</time>
      </trkpt>
      <trkpt lat="45.81093000" lon="6.243310000">
        <ele>1115.0000</ele>
        <time>2010-06-23T02:17:39Z</time>
      </trkpt>
      <trkpt lat="45.81193000" lon="6.242520000">
        <ele>1096.0000</ele>
        <time>2010-06-23T02:18:25Z</time>
      </trkpt>
      <trkpt lat="45.81225000" lon="6.242420000">
        <ele>1102.0000</ele>
        <time>2010-06-23T02:18:38Z</time>
      </trkpt>
      <trkpt lat="45.81292000" lon="6.242330000">
        <ele>1107.0000</ele>
        <time>2010-06-23T02:19:05Z</time>
      </trkpt>
      <trkpt lat="45.81337000" lon="6.242210000">
        <ele>1107.0000</ele>
        <time>2010-06-23T02:19:23Z</time>
      </trkpt>
      <trkpt lat="45.81363000" lon="6.242220000">
        <ele>1107.0000</ele>
        <time>2010-06-23T02:19:34Z</time>
      </trkpt>
      <trkpt lat="45.81408000" lon="6.242380000">
        <ele>1107.0000</ele>
        <time>2010-06-23T02:19:52Z</time>
      </trkpt>
      <trkpt lat="45.81631000" lon="6.243730000">
        <ele>1070.0000</ele>
        <time>2010-06-23T02:21:29Z</time>
      </trkpt>
      <trkpt lat="45.81680000" lon="6.244170000">
        <ele>1109.0000</ele>
        <time>2010-06-23T02:21:52Z</time>
      </trkpt>
      <trkpt lat="45.81690000" lon="6.244210000">
        <ele>1109.0000</ele>
        <time>2010-06-23T02:21:56Z</time>
      </trkpt>
      <trkpt lat="45.81703000" lon="6.244190000">
        <ele>1109.0000</ele>
        <time>2010-06-23T02:22:02Z</time>
      </trkpt>
      <trkpt lat="45.81727000" lon="6.243900000">
        <ele>1085.0000</ele>
        <time>2010-06-23T02:22:14Z</time>
      </trkpt>
      <trkpt lat="45.81781000" lon="6.243410000">
        <ele>1044.0000</ele>
        <time>2010-06-23T02:22:40Z</time>
      </trkpt>
      <trkpt lat="45.81840000" lon="6.243120000">
        <ele>1034.0000</ele>
        <time>2010-06-23T02:23:05Z</time>
      </trkpt>
      <trkpt lat="45.81875000" lon="6.243020000">
        <ele>1034.0000</ele>
        <time>2010-06-23T02:23:19Z</time>
      </trkpt>
      <trkpt lat="45.81883000" lon="6.242880000">
        <ele>1009.0000</ele>
        <time>2010-06-23T02:23:24Z</time>
      </trkpt>
      <trkpt lat="45.81884000" lon="6.242670000">
        <ele>1009.0000</ele>
        <time>2010-06-23T02:23:30Z</time>
      </trkpt>
      <trkpt lat="45.81903000" lon="6.242440000">
        <ele>1009.0000</ele>
        <time>2010-06-23T02:23:40Z</time>
      </trkpt>
      <trkpt lat="45.81920000" lon="6.242310000">
        <ele>1009.0000</ele>
        <time>2010-06-23T02:23:48Z</time>
      </trkpt>
      <trkpt lat="45.81941000" lon="6.242210000">
        <ele>1009.0000</ele>
        <time>2010-06-23T02:23:56Z</time>
      </trkpt>
      <trkpt lat="45.82020000" lon="6.242060000">
        <ele>999.00000</ele>
        <time>2010-06-23T02:24:28Z</time>
      </trkpt>
      <trkpt lat="45.82144000" lon="6.241670000">
        <ele>1038.0000</ele>
        <time>2010-06-23T02:25:19Z</time>
      </trkpt>
      <trkpt lat="45.82240000" lon="6.241460000">
        <ele>1033.0000</ele>
        <time>2010-06-23T02:25:58Z</time>
      </trkpt>
      <trkpt lat="45.82264000" lon="6.241450000">
        <ele>1033.0000</ele>
        <time>2010-06-23T02:26:08Z</time>
      </trkpt>
      <trkpt lat="45.82305000" lon="6.241480000">
        <ele>1014.0000</ele>
        <time>2010-06-23T02:26:24Z</time>
      </trkpt>
      <trkpt lat="45.82351000" lon="6.241730000">
        <ele>1014.0000</ele>
        <time>2010-06-23T02:26:44Z</time>
      </trkpt>
      <trkpt lat="45.82359000" lon="6.241720000">
        <ele>1014.0000</ele>
        <time>2010-06-23T02:26:47Z</time>
      </trkpt>
      <trkpt lat="45.82365000" lon="6.241650000">
        <ele>1014.0000</ele>
        <time>2010-06-23T02:26:50Z</time>
      </trkpt>
      <trkpt lat="45.82368000" lon="6.241510000">
        <ele>1014.0000</ele>
        <time>2010-06-23T02:26:54Z</time>
      </trkpt>
      <trkpt lat="45.82361000" lon="6.241360000">
        <ele>1014.0000</ele>
        <time>2010-06-23T02:26:59Z</time>
      </trkpt>
      <trkpt lat="45.82323000" lon="6.241220000">
        <ele>984.00000</ele>
        <time>2010-06-23T02:27:15Z</time>
      </trkpt>
      <trkpt lat="45.82240000" lon="6.240340000">
        <ele>966.00000</ele>
        <time>2010-06-23T02:27:56Z</time>
      </trkpt>
      <trkpt lat="45.82197000" lon="6.239980000">
        <ele>966.00000</ele>
        <time>2010-06-23T02:28:16Z</time>
      </trkpt>
      <trkpt lat="45.82165000" lon="6.239790000">
        <ele>966.00000</ele>
        <time>2010-06-23T02:28:30Z</time>
      </trkpt>
      <trkpt lat="45.82087000" lon="6.239750000">
        <ele>955.00000</ele>
        <time>2010-06-23T02:29:01Z</time>
      </trkpt>
      <trkpt lat="45.82081000" lon="6.239690000">
        <ele>955.00000</ele>
        <time>2010-06-23T02:29:04Z</time>
      </trkpt>
      <trkpt lat="45.82075000" lon="6.239480000">
        <ele>924.00000</ele>
        <time>2010-06-23T02:29:11Z</time>
      </trkpt>
      <trkpt lat="45.82081000" lon="6.239310000">
        <ele>924.00000</ele>
        <time>2010-06-23T02:29:16Z</time>
      </trkpt>
      <trkpt lat="45.82103000" lon="6.239200000">
        <ele>924.00000</ele>
        <time>2010-06-23T02:29:25Z</time>
      </trkpt>
      <trkpt lat="45.82118000" lon="6.239050000">
        <ele>924.00000</ele>
        <time>2010-06-23T02:29:32Z</time>
      </trkpt>
      <trkpt lat="45.82141000" lon="6.238580000">
        <ele>901.00000</ele>
        <time>2010-06-23T02:29:48Z</time>
      </trkpt>
      <trkpt lat="45.82162000" lon="6.238260000">
        <ele>901.00000</ele>
        <time>2010-06-23T02:30:01Z</time>
      </trkpt>
      <trkpt lat="45.82271000" lon="6.237080000">
        <ele>872.00000</ele>
        <time>2010-06-23T02:30:55Z</time>
      </trkpt>
      <trkpt lat="45.82296000" lon="6.236900000">
        <ele>876.00000</ele>
        <time>2010-06-23T02:31:07Z</time>
      </trkpt>
      <trkpt lat="45.82348000" lon="6.236920000">
        <ele>876.00000</ele>
        <time>2010-06-23T02:31:27Z</time>
      </trkpt>
      <trkpt lat="45.82414000" lon="6.237020000">
        <ele>865.00000</ele>
        <time>2010-06-23T02:31:54Z</time>
      </trkpt>
      <trkpt lat="45.82512000" lon="6.237040000">
        <ele>853.00000</ele>
        <time>2010-06-23T02:32:33Z</time>
      </trkpt>
      <trkpt lat="45.82533000" lon="6.237130000">
        <ele>865.00000</ele>
        <time>2010-06-23T02:32:42Z</time>
      </trkpt>
      <trkpt lat="45.82609000" lon="6.237670000">
        <ele>853.00000</ele>
        <time>2010-06-23T02:33:16Z</time>
      </trkpt>
      <trkpt lat="45.82638000" lon="6.237960000">
        <ele>853.00000</ele>
        <time>2010-06-23T02:33:30Z</time>
      </trkpt>
      <trkpt lat="45.82672000" lon="6.238440000">
        <ele>853.00000</ele>
        <time>2010-06-23T02:33:49Z</time>
      </trkpt>
      <trkpt lat="45.82693000" lon="6.238560000">
        <ele>853.00000</ele>
        <time>2010-06-23T02:33:58Z</time>
      </trkpt>
      <trkpt lat="45.82728000" lon="6.238600000">
        <ele>851.00000</ele>
        <time>2010-06-23T02:34:12Z</time>
      </trkpt>
      <trkpt lat="45.82760000" lon="6.238530000">
        <ele>851.00000</ele>
        <time>2010-06-23T02:34:25Z</time>
      </trkpt>
      <trkpt lat="45.82823000" lon="6.238240000">
        <ele>849.00000</ele>
        <time>2010-06-23T02:34:52Z</time>
      </trkpt>
      <trkpt lat="45.82880000" lon="6.237880000">
        <ele>827.00000</ele>
        <time>2010-06-23T02:35:17Z</time>
      </trkpt>
      <trkpt lat="45.82923000" lon="6.237840000">
        <ele>827.00000</ele>
        <time>2010-06-23T02:35:34Z</time>
      </trkpt>
      <trkpt lat="45.82949000" lon="6.237950000">
        <ele>843.00000</ele>
        <time>2010-06-23T02:35:45Z</time>
      </trkpt>
      <trkpt lat="45.83022000" lon="6.238560000">
        <ele>828.00000</ele>
        <time>2010-06-23T02:36:19Z</time>
      </trkpt>
      <trkpt lat="45.83049000" lon="6.238730000">
        <ele>800.00000</ele>
        <time>2010-06-23T02:36:30Z</time>
      </trkpt>
      <trkpt lat="45.83161000" lon="6.238730000">
        <ele>771.00000</ele>
        <time>2010-06-23T02:37:15Z</time>
      </trkpt>
      <trkpt lat="45.83178000" lon="6.238820000">
        <ele>774.00000</ele>
        <time>2010-06-23T02:37:22Z</time>
      </trkpt>
      <trkpt lat="45.83185000" lon="6.238930000">
        <ele>774.00000</ele>
        <time>2010-06-23T02:37:27Z</time>
      </trkpt>
      <trkpt lat="45.83200000" lon="6.239180000">
        <ele>774.00000</ele>
        <time>2010-06-23T02:37:36Z</time>
      </trkpt>
      <trkpt lat="45.83227000" lon="6.239800000">
        <ele>763.00000</ele>
        <time>2010-06-23T02:37:56Z</time>
      </trkpt>
      <trkpt lat="45.83241000" lon="6.240340000">
        <ele>763.00000</ele>
        <time>2010-06-23T02:38:12Z</time>
      </trkpt>
      <trkpt lat="45.83236000" lon="6.240690000">
        <ele>769.00000</ele>
        <time>2010-06-23T02:38:22Z</time>
      </trkpt>
      <trkpt lat="45.83243000" lon="6.240910000">
        <ele>769.00000</ele>
        <time>2010-06-23T02:38:29Z</time>
      </trkpt>
      <trkpt lat="45.83256000" lon="6.241060000">
        <ele>769.00000</ele>
        <time>2010-06-23T02:38:36Z</time>
      </trkpt>
      <trkpt lat="45.83282000" lon="6.241080000">
        <ele>769.00000</ele>
        <time>2010-06-23T02:38:46Z</time>
      </trkpt>
      <trkpt lat="45.83295000" lon="6.240920000">
        <ele>777.00000</ele>
        <time>2010-06-23T02:38:53Z</time>
      </trkpt>
      <trkpt lat="45.83316000" lon="6.240450000">
        <ele>777.00000</ele>
        <time>2010-06-23T02:39:09Z</time>
      </trkpt>
      <trkpt lat="45.83363000" lon="6.237840000">
        <ele>753.00000</ele>
        <time>2010-06-23T02:40:24Z</time>
      </trkpt>
      <trkpt lat="45.83450000" lon="6.234320000">
        <ele>739.00000</ele>
        <time>2010-06-23T02:42:08Z</time>
      </trkpt>
      <trkpt lat="45.83470000" lon="6.233660000">
        <ele>746.00000</ele>
        <time>2010-06-23T02:42:28Z</time>
      </trkpt>
      <trkpt lat="45.83481000" lon="6.233430000">
        <ele>746.00000</ele>
        <time>2010-06-23T02:42:36Z</time>
      </trkpt>
      <trkpt lat="45.83586000" lon="6.232200000">
        <ele>748.00000</ele>
        <time>2010-06-23T02:43:30Z</time>
      </trkpt>
      <trkpt lat="45.83681000" lon="6.232020000">
        <ele>742.00000</ele>
        <time>2010-06-23T02:44:08Z</time>
      </trkpt>
      <trkpt lat="45.83695000" lon="6.231940000">
        <ele>742.00000</ele>
        <time>2010-06-23T02:44:14Z</time>
      </trkpt>
      <trkpt lat="45.83764000" lon="6.230640000">
        <ele>747.00000</ele>
        <time>2010-06-23T02:45:00Z</time>
      </trkpt>
      <trkpt lat="45.83788000" lon="6.230080000">
        <ele>741.00000</ele>
        <time>2010-06-23T02:45:18Z</time>
      </trkpt>
      <trkpt lat="45.83799000" lon="6.229770000">
        <ele>754.00000</ele>
        <time>2010-06-23T02:45:28Z</time>
      </trkpt>
      <trkpt lat="45.83834000" lon="6.225850000">
        <ele>728.00000</ele>
        <time>2010-06-23T02:47:18Z</time>
      </trkpt>
      <trkpt lat="45.83845000" lon="6.225350000">
        <ele>725.00000</ele>
        <time>2010-06-23T02:47:33Z</time>
      </trkpt>
      <trkpt lat="45.83879000" lon="6.224900000">
        <ele>723.00000</ele>
        <time>2010-06-23T02:47:51Z</time>
      </trkpt>
      <trkpt lat="45.83904000" lon="6.224730000">
        <ele>723.00000</ele>
        <time>2010-06-23T02:48:02Z</time>
      </trkpt>
      <trkpt lat="45.83943000" lon="6.224680000">
        <ele>723.00000</ele>
        <time>2010-06-23T02:48:18Z</time>
      </trkpt>
      <trkpt lat="45.84061000" lon="6.224670000">
        <ele>704.00000</ele>
        <time>2010-06-23T02:49:05Z</time>
      </trkpt>
      <trkpt lat="45.84094000" lon="6.224770000">
        <ele>704.00000</ele>
        <time>2010-06-23T02:49:19Z</time>
      </trkpt>
      <trkpt lat="45.84109000" lon="6.224870000">
        <ele>704.00000</ele>
        <time>2010-06-23T02:49:25Z</time>
      </trkpt>
      <trkpt lat="45.84176000" lon="6.225810000">
        <ele>705.00000</ele>
        <time>2010-06-23T02:50:03Z</time>
      </trkpt>
      <trkpt lat="45.84184000" lon="6.225870000">
        <ele>705.00000</ele>
        <time>2010-06-23T02:50:07Z</time>
      </trkpt>
      <trkpt lat="45.84210000" lon="6.225870000">
        <ele>703.00000</ele>
        <time>2010-06-23T02:50:17Z</time>
      </trkpt>
      <trkpt lat="45.84215000" lon="6.225760000">
        <ele>703.00000</ele>
        <time>2010-06-23T02:50:21Z</time>
      </trkpt>
      <trkpt lat="45.84195000" lon="6.224640000">
        <ele>683.00000</ele>
        <time>2010-06-23T02:50:53Z</time>
      </trkpt>
      <trkpt lat="45.84178000" lon="6.224160000">
        <ele>667.00000</ele>
        <time>2010-06-23T02:51:08Z</time>
      </trkpt>
      <trkpt lat="45.84165000" lon="6.223910000">
        <ele>667.00000</ele>
        <time>2010-06-23T02:51:17Z</time>
      </trkpt>
      <trkpt lat="45.84160000" lon="6.223650000">
        <ele>655.00000</ele>
        <time>2010-06-23T02:51:24Z</time>
      </trkpt>
      <trkpt lat="45.84162000" lon="6.223520000">
        <ele>655.00000</ele>
        <time>2010-06-23T02:51:28Z</time>
      </trkpt>
      <trkpt lat="45.84185000" lon="6.222940000">
        <ele>655.00000</ele>
        <time>2010-06-23T02:51:46Z</time>
      </trkpt>
      <trkpt lat="45.84198000" lon="6.222000000">
        <ele>621.00000</ele>
        <time>2010-06-23T02:52:13Z</time>
      </trkpt>
      <trkpt lat="45.84204000" lon="6.221890000">
        <ele>621.00000</ele>
        <time>2010-06-23T02:52:17Z</time>
      </trkpt>
      <trkpt lat="45.84273000" lon="6.221350000">
        <ele>658.00000</ele>
        <time>2010-06-23T02:52:49Z</time>
      </trkpt>
      <trkpt lat="45.84296000" lon="6.221260000">
        <ele>686.00000</ele>
        <time>2010-06-23T02:52:58Z</time>
      </trkpt>
      <trkpt lat="45.84386000" lon="6.221160000">
        <ele>667.00000</ele>
        <time>2010-06-23T02:53:34Z</time>
      </trkpt>
      <trkpt lat="45.84532000" lon="6.221310000">
        <ele>704.00000</ele>
        <time>2010-06-23T02:54:33Z</time>
      </trkpt>
      <trkpt lat="45.84565000" lon="6.221230000">
        <ele>664.00000</ele>
        <time>2010-06-23T02:54:46Z</time>
      </trkpt>
      <trkpt lat="45.84602000" lon="6.220950000">
        <ele>664.00000</ele>
        <time>2010-06-23T02:55:03Z</time>
      </trkpt>
      <trkpt lat="45.84699000" lon="6.219860000">
        <ele>653.00000</ele>
        <time>2010-06-23T02:55:52Z</time>
      </trkpt>
      <trkpt lat="45.84757000" lon="6.219670000">
        <ele>667.00000</ele>
        <time>2010-06-23T02:56:16Z</time>
      </trkpt>
      <trkpt lat="45.84830000" lon="6.219600000">
        <ele>678.00000</ele>
        <time>2010-06-23T02:56:45Z</time>
      </trkpt>
      <trkpt lat="45.84963000" lon="6.218670000">
        <ele>651.00000</ele>
        <time>2010-06-23T02:57:45Z</time>
      </trkpt>
      <trkpt lat="45.84995000" lon="6.218400000">
        <ele>651.00000</ele>
        <time>2010-06-23T02:57:59Z</time>
      </trkpt>
      <trkpt lat="45.85041000" lon="6.217840000">
        <ele>629.00000</ele>
        <time>2010-06-23T02:58:24Z</time>
      </trkpt>
      <trkpt lat="45.85146000" lon="6.216220000">
        <ele>619.00000</ele>
        <time>2010-06-23T02:59:25Z</time>
      </trkpt>
      <trkpt lat="45.85162000" lon="6.216350000">
        <ele>637.00000</ele>
        <time>2010-06-23T02:59:33Z</time>
      </trkpt>
      <trkpt lat="45.85177000" lon="6.216330000">
        <ele>637.00000</ele>
        <time>2010-06-23T02:59:39Z</time>
      </trkpt>
      <trkpt lat="45.85244000" lon="6.215230000">
        <ele>623.00000</ele>
        <time>2010-06-23T03:00:19Z</time>
      </trkpt>
      <trkpt lat="45.85286000" lon="6.214970000">
        <ele>623.00000</ele>
        <time>2010-06-23T03:00:38Z</time>
      </trkpt>
      <trkpt lat="45.85320000" lon="6.214940000">
        <ele>644.00000</ele>
        <time>2010-06-23T03:00:51Z</time>
      </trkpt>
      <trkpt lat="45.85338000" lon="6.214830000">
        <ele>644.00000</ele>
        <time>2010-06-23T03:00:59Z</time>
      </trkpt>
      <trkpt lat="45.85353000" lon="6.214610000">
        <ele>644.00000</ele>
        <time>2010-06-23T03:01:08Z</time>
      </trkpt>
      <trkpt lat="45.85367000" lon="6.213970000">
        <ele>634.00000</ele>
        <time>2010-06-23T03:01:26Z</time>
      </trkpt>
      <trkpt lat="45.85387000" lon="6.213640000">
        <ele>644.00000</ele>
        <time>2010-06-23T03:01:39Z</time>
      </trkpt>
      <trkpt lat="45.85435000" lon="6.213360000">
        <ele>644.00000</ele>
        <time>2010-06-23T03:01:59Z</time>
      </trkpt>
      <trkpt lat="45.85514000" lon="6.213230000">
        <ele>657.00000</ele>
        <time>2010-06-23T03:02:31Z</time>
      </trkpt>
      <trkpt lat="45.85610000" lon="6.212600000">
        <ele>656.00000</ele>
        <time>2010-06-23T03:03:13Z</time>
      </trkpt>
      <trkpt lat="45.85647000" lon="6.212530000">
        <ele>663.00000</ele>
        <time>2010-06-23T03:03:28Z</time>
      </trkpt>
      <trkpt lat="45.85685000" lon="6.212540000">
        <ele>663.00000</ele>
        <time>2010-06-23T03:03:44Z</time>
      </trkpt>
      <trkpt lat="45.85726000" lon="6.212700000">
        <ele>664.00000</ele>
        <time>2010-06-23T03:04:01Z</time>
      </trkpt>
      <trkpt lat="45.85788000" lon="6.213030000">
        <ele>676.00000</ele>
        <time>2010-06-23T03:04:27Z</time>
      </trkpt>
      <trkpt lat="45.85850000" lon="6.213460000">
        <ele>678.00000</ele>
        <time>2010-06-23T03:04:55Z</time>
      </trkpt>
      <trkpt lat="45.85870000" lon="6.213540000">
        <ele>678.00000</ele>
        <time>2010-06-23T03:05:03Z</time>
      </trkpt>
      <trkpt lat="45.85985000" lon="6.213540000">
        <ele>696.00000</ele>
        <time>2010-06-23T03:05:49Z</time>
      </trkpt>
      <trkpt lat="45.86068000" lon="6.213800000">
        <ele>682.00000</ele>
        <time>2010-06-23T03:06:23Z</time>
      </trkpt>
      <trkpt lat="45.86080000" lon="6.213900000">
        <ele>682.00000</ele>
        <time>2010-06-23T03:06:29Z</time>
      </trkpt>
      <trkpt lat="45.86106000" lon="6.214310000">
        <ele>682.00000</ele>
        <time>2010-06-23T03:06:44Z</time>
      </trkpt>
      <trkpt lat="45.86109000" lon="6.214490000">
        <ele>682.00000</ele>
        <time>2010-06-23T03:06:49Z</time>
      </trkpt>
      <trkpt lat="45.86103000" lon="6.214970000">
        <ele>678.00000</ele>
        <time>2010-06-23T03:07:03Z</time>
      </trkpt>
      <trkpt lat="45.86106000" lon="6.215210000">
        <ele>678.00000</ele>
        <time>2010-06-23T03:07:10Z</time>
      </trkpt>
      <trkpt lat="45.86114000" lon="6.215460000">
        <ele>682.00000</ele>
        <time>2010-06-23T03:07:17Z</time>
      </trkpt>
      <trkpt lat="45.86124000" lon="6.215560000">
        <ele>682.00000</ele>
        <time>2010-06-23T03:07:22Z</time>
      </trkpt>
      <trkpt lat="45.86159000" lon="6.215750000">
        <ele>675.00000</ele>
        <time>2010-06-23T03:07:37Z</time>
      </trkpt>
      <trkpt lat="45.86253000" lon="6.216950000">
        <ele>683.00000</ele>
        <time>2010-06-23T03:08:27Z</time>
      </trkpt>
      <trkpt lat="45.86290000" lon="6.217250000">
        <ele>698.00000</ele>
        <time>2010-06-23T03:08:44Z</time>
      </trkpt>
      <trkpt lat="45.86399000" lon="6.217940000">
        <ele>705.00000</ele>
        <time>2010-06-23T03:09:32Z</time>
      </trkpt>
      <trkpt lat="45.86491000" lon="6.218180000">
        <ele>697.00000</ele>
        <time>2010-06-23T03:10:10Z</time>
      </trkpt>
      <trkpt lat="45.86557000" lon="6.218510000">
        <ele>695.00000</ele>
        <time>2010-06-23T03:10:38Z</time>
      </trkpt>
      <trkpt lat="45.86628000" lon="6.218400000">
        <ele>691.00000</ele>
        <time>2010-06-23T03:11:06Z</time>
      </trkpt>
      <trkpt lat="45.86694000" lon="6.218570000">
        <ele>691.00000</ele>
        <time>2010-06-23T03:11:33Z</time>
      </trkpt>
      <trkpt lat="45.86755000" lon="6.218660000">
        <ele>686.00000</ele>
        <time>2010-06-23T03:11:58Z</time>
      </trkpt>
      <trkpt lat="45.86775000" lon="6.218640000">
        <ele>686.00000</ele>
        <time>2010-06-23T03:12:06Z</time>
      </trkpt>
      <trkpt lat="45.86929000" lon="6.218150000">
        <ele>682.00000</ele>
        <time>2010-06-23T03:13:09Z</time>
      </trkpt>
      <trkpt lat="45.87051000" lon="6.218090000">
        <ele>686.00000</ele>
        <time>2010-06-23T03:13:58Z</time>
      </trkpt>
      <trkpt lat="45.87093000" lon="6.217830000">
        <ele>671.00000</ele>
        <time>2010-06-23T03:14:16Z</time>
      </trkpt>
      <trkpt lat="45.87120000" lon="6.217740000">
        <ele>671.00000</ele>
        <time>2010-06-23T03:14:27Z</time>
      </trkpt>
      <trkpt lat="45.87197000" lon="6.217560000">
        <ele>673.00000</ele>
        <time>2010-06-23T03:14:58Z</time>
      </trkpt>
      <trkpt lat="45.87274000" lon="6.217460000">
        <ele>675.00000</ele>
        <time>2010-06-23T03:15:29Z</time>
      </trkpt>
      <trkpt lat="45.87309000" lon="6.217340000">
        <ele>675.00000</ele>
        <time>2010-06-23T03:15:44Z</time>
      </trkpt>
      <trkpt lat="45.87381000" lon="6.217010000">
        <ele>665.00000</ele>
        <time>2010-06-23T03:16:14Z</time>
      </trkpt>
      <trkpt lat="45.87450000" lon="6.216790000">
        <ele>665.00000</ele>
        <time>2010-06-23T03:16:42Z</time>
      </trkpt>
      <trkpt lat="45.87458000" lon="6.216700000">
        <ele>665.00000</ele>
        <time>2010-06-23T03:16:46Z</time>
      </trkpt>
      <trkpt lat="45.87465000" lon="6.216520000">
        <ele>661.00000</ele>
        <time>2010-06-23T03:16:52Z</time>
      </trkpt>
      <trkpt lat="45.87470000" lon="6.216150000">
        <ele>653.00000</ele>
        <time>2010-06-23T03:17:02Z</time>
      </trkpt>
      <trkpt lat="45.87470000" lon="6.215340000">
        <ele>645.00000</ele>
        <time>2010-06-23T03:17:25Z</time>
      </trkpt>
      <trkpt lat="45.87466000" lon="6.214930000">
        <ele>645.00000</ele>
        <time>2010-06-23T03:17:37Z</time>
      </trkpt>
      <trkpt lat="45.87448000" lon="6.214270000">
        <ele>643.00000</ele>
        <time>2010-06-23T03:17:56Z</time>
      </trkpt>
      <trkpt lat="45.87445000" lon="6.214040000">
        <ele>643.00000</ele>
        <time>2010-06-23T03:18:03Z</time>
      </trkpt>
      <trkpt lat="45.87456000" lon="6.213870000">
        <ele>643.00000</ele>
        <time>2010-06-23T03:18:09Z</time>
      </trkpt>
      <trkpt lat="45.87360000" lon="6.212640000">
        <ele>635.00000</ele>
        <time>2010-06-23T03:19:01Z</time>
      </trkpt>
      <trkpt lat="45.87329000" lon="6.212170000">
        <ele>635.00000</ele>
        <time>2010-06-23T03:19:19Z</time>
      </trkpt>
      <trkpt lat="45.87351000" lon="6.212010000">
        <ele>633.00000</ele>
        <time>2010-06-23T03:19:29Z</time>
      </trkpt>
      <trkpt lat="45.87369000" lon="6.212220000">
        <ele>635.00000</ele>
        <time>2010-06-23T03:19:38Z</time>
      </trkpt>
      <trkpt lat="45.87404000" lon="6.212310000">
        <ele>638.00000</ele>
        <time>2010-06-23T03:19:52Z</time>
      </trkpt>
      <trkpt lat="45.87457000" lon="6.212310000">
        <ele>638.00000</ele>
        <time>2010-06-23T03:20:13Z</time>
      </trkpt>
      <trkpt lat="45.87528000" lon="6.212560000">
        <ele>631.00000</ele>
        <time>2010-06-23T03:20:43Z</time>
      </trkpt>
      <trkpt lat="45.87537000" lon="6.212550000">
        <ele>631.00000</ele>
        <time>2010-06-23T03:20:46Z</time>
      </trkpt>
      <trkpt lat="45.87628000" lon="6.211980000">
        <ele>628.00000</ele>
        <time>2010-06-23T03:21:26Z</time>
      </trkpt>
      <trkpt lat="45.87641000" lon="6.211940000">
        <ele>628.00000</ele>
        <time>2010-06-23T03:21:31Z</time>
      </trkpt>
      <trkpt lat="45.87735000" lon="6.211890000">
        <ele>629.00000</ele>
        <time>2010-06-23T03:22:09Z</time>
      </trkpt>
      <trkpt lat="45.87786000" lon="6.212090000">
        <ele>620.00000</ele>
        <time>2010-06-23T03:22:30Z</time>
      </trkpt>
      <trkpt lat="45.87845000" lon="6.212490000">
        <ele>619.00000</ele>
        <time>2010-06-23T03:22:56Z</time>
      </trkpt>
      <trkpt lat="45.87944000" lon="6.213310000">
        <ele>608.00000</ele>
        <time>2010-06-23T03:23:42Z</time>
      </trkpt>
      <trkpt lat="45.88158000" lon="6.215830000">
        <ele>592.00000</ele>
        <time>2010-06-23T03:25:33Z</time>
      </trkpt>
      <trkpt lat="45.88238000" lon="6.216560000">
        <ele>580.00000</ele>
        <time>2010-06-23T03:26:11Z</time>
      </trkpt>
      <trkpt lat="45.88252000" lon="6.216660000">
        <ele>580.00000</ele>
        <time>2010-06-23T03:26:17Z</time>
      </trkpt>
      <trkpt lat="45.88318000" lon="6.216840000">
        <ele>579.00000</ele>
        <time>2010-06-23T03:26:44Z</time>
      </trkpt>
      <trkpt lat="45.88394000" lon="6.217260000">
        <ele>579.00000</ele>
        <time>2010-06-23T03:27:16Z</time>
      </trkpt>
      <trkpt lat="45.88424000" lon="6.217340000">
        <ele>579.00000</ele>
        <time>2010-06-23T03:27:29Z</time>
      </trkpt>
      <trkpt lat="45.88505000" lon="6.217400000">
        <ele>579.00000</ele>
        <time>2010-06-23T03:28:01Z</time>
      </trkpt>
      <trkpt lat="45.88596000" lon="6.217190000">
        <ele>578.00000</ele>
        <time>2010-06-23T03:28:38Z</time>
      </trkpt>
      <trkpt lat="45.88619000" lon="6.217190000">
        <ele>578.00000</ele>
        <time>2010-06-23T03:28:47Z</time>
      </trkpt>
      <trkpt lat="45.88700000" lon="6.217480000">
        <ele>574.00000</ele>
        <time>2010-06-23T03:29:21Z</time>
      </trkpt>
      <trkpt lat="45.88822000" lon="6.218070000">
        <ele>564.00000</ele>
        <time>2010-06-23T03:30:12Z</time>
      </trkpt>
      <trkpt lat="45.88928000" lon="6.218220000">
        <ele>561.00000</ele>
        <time>2010-06-23T03:30:55Z</time>
      </trkpt>
      <trkpt lat="45.88966000" lon="6.218120000">
        <ele>560.00000</ele>
        <time>2010-06-23T03:31:10Z</time>
      </trkpt>
      <trkpt lat="45.89050000" lon="6.217660000">
        <ele>553.00000</ele>
        <time>2010-06-23T03:31:46Z</time>
      </trkpt>
      <trkpt lat="45.89062000" lon="6.217670000">
        <ele>553.00000</ele>
        <time>2010-06-23T03:31:51Z</time>
      </trkpt>
      <trkpt lat="45.89078000" lon="6.217870000">
        <ele>553.00000</ele>
        <time>2010-06-23T03:32:00Z</time>
      </trkpt>
      <trkpt lat="45.89083000" lon="6.218080000">
        <ele>556.00000</ele>
        <time>2010-06-23T03:32:06Z</time>
      </trkpt>
      <trkpt lat="45.89101000" lon="6.218380000">
        <ele>556.00000</ele>
        <time>2010-06-23T03:32:17Z</time>
      </trkpt>
      <trkpt lat="45.89123000" lon="6.218630000">
        <ele>556.00000</ele>
        <time>2010-06-23T03:32:28Z</time>
      </trkpt>
      <trkpt lat="45.89186000" lon="6.219170000">
        <ele>547.00000</ele>
        <time>2010-06-23T03:32:57Z</time>
      </trkpt>
      <trkpt lat="45.89218000" lon="6.219320000">
        <ele>541.00000</ele>
        <time>2010-06-23T03:33:11Z</time>
      </trkpt>
      <trkpt lat="45.89237000" lon="6.219380000">
        <ele>541.00000</ele>
        <time>2010-06-23T03:33:19Z</time>
      </trkpt>
      <trkpt lat="45.89294000" lon="6.219410000">
        <ele>540.00000</ele>
        <time>2010-06-23T03:33:42Z</time>
      </trkpt>
      <trkpt lat="45.89420000" lon="6.219310000">
        <ele>540.00000</ele>
        <time>2010-06-23T03:34:32Z</time>
      </trkpt>
      <trkpt lat="45.89564000" lon="6.219480000">
        <ele>540.00000</ele>
        <time>2010-06-23T03:35:30Z</time>
      </trkpt>
      <trkpt lat="45.89684000" lon="6.219270000">
        <ele>540.00000</ele>
        <time>2010-06-23T03:36:18Z</time>
      </trkpt>
      <trkpt lat="45.89722000" lon="6.219150000">
        <ele>540.00000</ele>
        <time>2010-06-23T03:36:34Z</time>
      </trkpt>
      <trkpt lat="45.89739000" lon="6.218890000">
        <ele>540.00000</ele>
        <time>2010-06-23T03:36:44Z</time>
      </trkpt>
      <trkpt lat="45.89746000" lon="6.218600000">
        <ele>540.00000</ele>
        <time>2010-06-23T03:36:52Z</time>
      </trkpt>
      <trkpt lat="45.89754000" lon="6.217280000">
        <ele>540.00000</ele>
        <time>2010-06-23T03:37:29Z</time>
      </trkpt>
      <trkpt lat="45.89760000" lon="6.217090000">
        <ele>540.00000</ele>
        <time>2010-06-23T03:37:35Z</time>
      </trkpt>
      <trkpt lat="45.89781000" lon="6.217040000">
        <ele>540.00000</ele>
        <time>2010-06-23T03:37:44Z</time>
      </trkpt>
      <trkpt lat="45.89798000" lon="6.217080000">
        <ele>539.00000</ele>
        <time>2010-06-23T03:37:50Z</time>
      </trkpt>
      <trkpt lat="45.89839000" lon="6.217300000">
        <ele>539.00000</ele>
        <time>2010-06-23T03:38:08Z</time>
      </trkpt>
      <trkpt lat="45.89856000" lon="6.216330000">
        <ele>539.00000</ele>
        <time>2010-06-23T03:38:36Z</time>
      </trkpt>
      <trkpt lat="45.89899000" lon="6.214130000">
        <ele>541.00000</ele>
        <time>2010-06-23T03:39:40Z</time>
      </trkpt>
      <trkpt lat="45.89908000" lon="6.213820000">
        <ele>541.00000</ele>
        <time>2010-06-23T03:39:49Z</time>
      </trkpt>
      <trkpt lat="45.89929000" lon="6.213410000">
        <ele>553.00000</ele>
        <time>2010-06-23T03:40:03Z</time>
      </trkpt>
      <trkpt lat="45.89933000" lon="6.213230000">
        <ele>553.00000</ele>
        <time>2010-06-23T03:40:08Z</time>
      </trkpt>
      <trkpt lat="45.90023000" lon="6.212530000">
        <ele>558.00000</ele>
        <time>2010-06-23T03:40:49Z</time>
      </trkpt>
      <trkpt lat="45.90059000" lon="6.212040000">
        <ele>564.00000</ele>
        <time>2010-06-23T03:41:09Z</time>
      </trkpt>
      <trkpt lat="45.90140000" lon="6.211220000">
        <ele>567.00000</ele>
        <time>2010-06-23T03:41:49Z</time>
      </trkpt>
      <trkpt lat="45.90153000" lon="6.211150000">
        <ele>567.00000</ele>
        <time>2010-06-23T03:41:54Z</time>
      </trkpt>
      <trkpt lat="45.90202000" lon="6.211050000">
        <ele>567.00000</ele>
        <time>2010-06-23T03:42:14Z</time>
      </trkpt>
      <trkpt lat="45.90243000" lon="6.210480000">
        <ele>533.00000</ele>
        <time>2010-06-23T03:42:37Z</time>
      </trkpt>
      <trkpt lat="45.90262000" lon="6.210280000">
        <ele>553.00000</ele>
        <time>2010-06-23T03:42:46Z</time>
      </trkpt>
      <trkpt lat="45.90318000" lon="6.209870000">
        <ele>529.00000</ele>
        <time>2010-06-23T03:43:12Z</time>
      </trkpt>
      <trkpt lat="45.90352000" lon="6.211030000">
        <ele>524.00000</ele>
        <time>2010-06-23T03:43:47Z</time>
      </trkpt>
      <trkpt lat="45.90377000" lon="6.210630000">
        <ele>537.00000</ele>
        <time>2010-06-23T03:44:02Z</time>
      </trkpt>
      <trkpt lat="45.90387000" lon="6.210360000">
        <ele>527.00000</ele>
        <time>2010-06-23T03:44:10Z</time>
      </trkpt>
      <trkpt lat="45.90398000" lon="6.209680000">
        <ele>527.00000</ele>
        <time>2010-06-23T03:44:30Z</time>
      </trkpt>
      <trkpt lat="45.90421000" lon="6.208800000">
        <ele>524.00000</ele>
        <time>2010-06-23T03:44:56Z</time>
      </trkpt>
      <trkpt lat="45.90446000" lon="6.208320000">
        <ele>531.00000</ele>
        <time>2010-06-23T03:45:12Z</time>
      </trkpt>
      <trkpt lat="45.90536000" lon="6.207120000">
        <ele>524.00000</ele>
        <time>2010-06-23T03:46:02Z</time>
      </trkpt>
      <trkpt lat="45.90543000" lon="6.206960000">
        <ele>523.00000</ele>
        <time>2010-06-23T03:46:07Z</time>
      </trkpt>
      <trkpt lat="45.90557000" lon="6.206320000">
        <ele>523.00000</ele>
        <time>2010-06-23T03:46:26Z</time>
      </trkpt>
      <trkpt lat="45.90566000" lon="6.206190000">
        <ele>525.00000</ele>
        <time>2010-06-23T03:46:31Z</time>
      </trkpt>
      <trkpt lat="45.90582000" lon="6.206070000">
        <ele>525.00000</ele>
        <time>2010-06-23T03:46:38Z</time>
      </trkpt>
      <trkpt lat="45.90663000" lon="6.205610000">
        <ele>529.00000</ele>
        <time>2010-06-23T03:47:13Z</time>
      </trkpt>
      <trkpt lat="45.90715000" lon="6.205200000">
        <ele>532.00000</ele>
        <time>2010-06-23T03:47:37Z</time>
      </trkpt>
      <trkpt lat="45.90912000" lon="6.204540000">
        <ele>550.00000</ele>
        <time>2010-06-23T03:48:57Z</time>
      </trkpt>
      <trkpt lat="45.90942000" lon="6.204370000">
        <ele>550.00000</ele>
        <time>2010-06-23T03:49:10Z</time>
      </trkpt>
      <trkpt lat="45.90985000" lon="6.203970000">
        <ele>579.00000</ele>
        <time>2010-06-23T03:49:31Z</time>
      </trkpt>
      <trkpt lat="45.91000000" lon="6.203890000">
        <ele>579.00000</ele>
        <time>2010-06-23T03:49:37Z</time>
      </trkpt>
      <trkpt lat="45.91038000" lon="6.203920000">
        <ele>579.00000</ele>
        <time>2010-06-23T03:49:53Z</time>
      </trkpt>
      <trkpt lat="45.91178000" lon="6.204620000">
        <ele>582.00000</ele>
        <time>2010-06-23T03:50:52Z</time>
      </trkpt>
      <trkpt lat="45.91212000" lon="6.204690000">
        <ele>580.00000</ele>
        <time>2010-06-23T03:51:06Z</time>
      </trkpt>
      <trkpt lat="45.91356000" lon="6.204580000">
        <ele>580.00000</ele>
        <time>2010-06-23T03:52:03Z</time>
      </trkpt>
      <trkpt lat="45.91405000" lon="6.204600000">
        <ele>579.00000</ele>
        <time>2010-06-23T03:52:23Z</time>
      </trkpt>
      <trkpt lat="45.91514000" lon="6.204230000">
        <ele>578.00000</ele>
        <time>2010-06-23T03:53:08Z</time>
      </trkpt>
      <trkpt lat="45.91676000" lon="6.203850000">
        <ele>570.00000</ele>
        <time>2010-06-23T03:54:14Z</time>
      </trkpt>
      <trkpt lat="45.91824000" lon="6.203710000">
        <ele>567.00000</ele>
        <time>2010-06-23T03:55:13Z</time>
      </trkpt>
      <trkpt lat="45.91884000" lon="6.203570000">
        <ele>573.00000</ele>
        <time>2010-06-23T03:55:37Z</time>
      </trkpt>
      <trkpt lat="45.91944000" lon="6.203240000">
        <ele>573.00000</ele>
        <time>2010-06-23T03:56:03Z</time>
      </trkpt>
      <trkpt lat="45.91976000" lon="6.203160000">
        <ele>591.00000</ele>
        <time>2010-06-23T03:56:16Z</time>
      </trkpt>
      <trkpt lat="45.91982000" lon="6.203200000">
        <ele>591.00000</ele>
        <time>2010-06-23T03:56:19Z</time>
      </trkpt>
      <trkpt lat="45.91986000" lon="6.203310000">
        <ele>591.00000</ele>
        <time>2010-06-23T03:56:22Z</time>
      </trkpt>
      <trkpt lat="45.92001000" lon="6.204130000">
        <ele>599.00000</ele>
        <time>2010-06-23T03:56:46Z</time>
      </trkpt>
      <trkpt lat="45.92008000" lon="6.204340000">
        <ele>599.00000</ele>
        <time>2010-06-23T03:56:52Z</time>
      </trkpt>
      <trkpt lat="45.92021000" lon="6.204400000">
        <ele>599.00000</ele>
        <time>2010-06-23T03:56:58Z</time>
      </trkpt>
      <trkpt lat="45.92029000" lon="6.204360000">
        <ele>599.00000</ele>
        <time>2010-06-23T03:57:01Z</time>
      </trkpt>
      <trkpt lat="45.92044000" lon="6.204160000">
        <ele>615.00000</ele>
        <time>2010-06-23T03:57:09Z</time>
      </trkpt>
      <trkpt lat="45.92084000" lon="6.203360000">
        <ele>613.00000</ele>
        <time>2010-06-23T03:57:37Z</time>
      </trkpt>
      <trkpt lat="45.92112000" lon="6.203060000">
        <ele>613.00000</ele>
        <time>2010-06-23T03:57:51Z</time>
      </trkpt>
      <trkpt lat="45.92188000" lon="6.202620000">
        <ele>621.00000</ele>
        <time>2010-06-23T03:58:23Z</time>
      </trkpt>
      <trkpt lat="45.92308000" lon="6.202040000">
        <ele>611.00000</ele>
        <time>2010-06-23T03:59:14Z</time>
      </trkpt>
      <trkpt lat="45.92363000" lon="6.201580000">
        <ele>611.00000</ele>
        <time>2010-06-23T03:59:40Z</time>
      </trkpt>
      <trkpt lat="45.92485000" lon="6.199610000">
        <ele>609.00000</ele>
        <time>2010-06-23T04:00:53Z</time>
      </trkpt>
      <trkpt lat="45.92555000" lon="6.198710000">
        <ele>597.00000</ele>
        <time>2010-06-23T04:01:31Z</time>
      </trkpt>
      <trkpt lat="45.92613000" lon="6.197760000">
        <ele>592.00000</ele>
        <time>2010-06-23T04:02:06Z</time>
      </trkpt>
      <trkpt lat="45.92810000" lon="6.196550000">
        <ele>615.00000</ele>
        <time>2010-06-23T04:03:32Z</time>
      </trkpt>
      <trkpt lat="45.92859000" lon="6.196480000">
        <ele>615.00000</ele>
        <time>2010-06-23T04:03:51Z</time>
      </trkpt>
      <trkpt lat="45.92917000" lon="6.196460000">
        <ele>620.00000</ele>
        <time>2010-06-23T04:04:14Z</time>
      </trkpt>
      <trkpt lat="45.92950000" lon="6.196200000">
        <ele>615.00000</ele>
        <time>2010-06-23T04:04:30Z</time>
      </trkpt>
      <trkpt lat="45.92988000" lon="6.195700000">
        <ele>628.00000</ele>
        <time>2010-06-23T04:04:50Z</time>
      </trkpt>
      <trkpt lat="45.93044000" lon="6.194550000">
        <ele>628.00000</ele>
        <time>2010-06-23T04:05:29Z</time>
      </trkpt>
      <trkpt lat="45.93101000" lon="6.194070000">
        <ele>628.00000</ele>
        <time>2010-06-23T04:05:56Z</time>
      </trkpt>
      <trkpt lat="45.93151000" lon="6.193480000">
        <ele>626.00000</ele>
        <time>2010-06-23T04:06:22Z</time>
      </trkpt>
      <trkpt lat="45.93205000" lon="6.192660000">
        <ele>621.00000</ele>
        <time>2010-06-23T04:06:53Z</time>
      </trkpt>
      <trkpt lat="45.93228000" lon="6.192030000">
        <ele>627.00000</ele>
        <time>2010-06-23T04:07:13Z</time>
      </trkpt>
      <trkpt lat="45.93246000" lon="6.191340000">
        <ele>627.00000</ele>
        <time>2010-06-23T04:07:33Z</time>
      </trkpt>
      <trkpt lat="45.93263000" lon="6.190900000">
        <ele>623.00000</ele>
        <time>2010-06-23T04:07:47Z</time>
      </trkpt>
      <trkpt lat="45.93340000" lon="6.190610000">
        <ele>627.00000</ele>
        <time>2010-06-23T04:08:19Z</time>
      </trkpt>
      <trkpt lat="45.93406000" lon="6.190150000">
        <ele>630.00000</ele>
        <time>2010-06-23T04:08:49Z</time>
      </trkpt>
      <trkpt lat="45.93426000" lon="6.189940000">
        <ele>630.00000</ele>
        <time>2010-06-23T04:08:58Z</time>
      </trkpt>
      <trkpt lat="45.93414000" lon="6.189750000">
        <ele>630.00000</ele>
        <time>2010-06-23T04:09:06Z</time>
      </trkpt>
      <trkpt lat="45.93410000" lon="6.189620000">
        <ele>630.00000</ele>
        <time>2010-06-23T04:09:10Z</time>
      </trkpt>
      <trkpt lat="45.93419000" lon="6.188930000">
        <ele>627.00000</ele>
        <time>2010-06-23T04:09:29Z</time>
      </trkpt>
      <trkpt lat="45.93456000" lon="6.188470000">
        <ele>625.00000</ele>
        <time>2010-06-23T04:09:49Z</time>
      </trkpt>
      <trkpt lat="45.93463000" lon="6.188330000">
        <ele>628.00000</ele>
        <time>2010-06-23T04:09:54Z</time>
      </trkpt>
      <trkpt lat="45.93466000" lon="6.188140000">
        <ele>628.00000</ele>
        <time>2010-06-23T04:09:59Z</time>
      </trkpt>
      <trkpt lat="45.93439000" lon="6.187140000">
        <ele>623.00000</ele>
        <time>2010-06-23T04:10:29Z</time>
      </trkpt>
      <trkpt lat="45.93425000" lon="6.186800000">
        <ele>621.00000</ele>
        <time>2010-06-23T04:10:40Z</time>
      </trkpt>
      <trkpt lat="45.93405000" lon="6.186640000">
        <ele>621.00000</ele>
        <time>2010-06-23T04:10:49Z</time>
      </trkpt>
      <trkpt lat="45.93387000" lon="6.186670000">
        <ele>621.00000</ele>
        <time>2010-06-23T04:10:56Z</time>
      </trkpt>
      <trkpt lat="45.93376000" lon="6.186870000">
        <ele>621.00000</ele>
        <time>2010-06-23T04:11:03Z</time>
      </trkpt>
      <trkpt lat="45.93368000" lon="6.187270000">
        <ele>615.00000</ele>
        <time>2010-06-23T04:11:15Z</time>
      </trkpt>
      <trkpt lat="45.93363000" lon="6.187340000">
        <ele>615.00000</ele>
        <time>2010-06-23T04:11:18Z</time>
      </trkpt>
      <trkpt lat="45.93350000" lon="6.187380000">
        <ele>615.00000</ele>
        <time>2010-06-23T04:11:23Z</time>
      </trkpt>
      <trkpt lat="45.93288000" lon="6.187320000">
        <ele>609.00000</ele>
        <time>2010-06-23T04:11:48Z</time>
      </trkpt>
      <trkpt lat="45.93273000" lon="6.187160000">
        <ele>609.00000</ele>
        <time>2010-06-23T04:11:55Z</time>
      </trkpt>
      <trkpt lat="45.93238000" lon="6.186290000">
        <ele>605.00000</ele>
        <time>2010-06-23T04:12:23Z</time>
      </trkpt>
      <trkpt lat="45.93199000" lon="6.186000000">
        <ele>600.00000</ele>
        <time>2010-06-23T04:12:41Z</time>
      </trkpt>
      <trkpt lat="45.93167000" lon="6.185590000">
        <ele>600.00000</ele>
        <time>2010-06-23T04:12:58Z</time>
      </trkpt>
      <trkpt lat="45.93138000" lon="6.184750000">
        <ele>595.00000</ele>
        <time>2010-06-23T04:13:24Z</time>
      </trkpt>
      <trkpt lat="45.93120000" lon="6.184580000">
        <ele>578.00000</ele>
        <time>2010-06-23T04:13:33Z</time>
      </trkpt>
      <trkpt lat="45.93098000" lon="6.184590000">
        <ele>589.00000</ele>
        <time>2010-06-23T04:13:42Z</time>
      </trkpt>
      <trkpt lat="45.93080000" lon="6.184700000">
        <ele>589.00000</ele>
        <time>2010-06-23T04:13:49Z</time>
      </trkpt>
      <trkpt lat="45.92982000" lon="6.185640000">
        <ele>589.00000</ele>
        <time>2010-06-23T04:14:37Z</time>
      </trkpt>
      <trkpt lat="45.92914000" lon="6.186710000">
        <ele>585.00000</ele>
        <time>2010-06-23T04:15:17Z</time>
      </trkpt>
      <trkpt lat="45.92886000" lon="6.187090000">
        <ele>592.00000</ele>
        <time>2010-06-23T04:15:32Z</time>
      </trkpt>
      <trkpt lat="45.92878000" lon="6.187130000">
        <ele>592.00000</ele>
        <time>2010-06-23T04:15:36Z</time>
      </trkpt>
      <trkpt lat="45.92864000" lon="6.187130000">
        <ele>580.00000</ele>
        <time>2010-06-23T04:15:41Z</time>
      </trkpt>
      <trkpt lat="45.92853000" lon="6.187050000">
        <ele>573.00000</ele>
        <time>2010-06-23T04:15:46Z</time>
      </trkpt>
      <trkpt lat="45.92849000" lon="6.186900000">
        <ele>573.00000</ele>
        <time>2010-06-23T04:15:51Z</time>
      </trkpt>
      <trkpt lat="45.92850000" lon="6.186780000">
        <ele>573.00000</ele>
        <time>2010-06-23T04:15:54Z</time>
      </trkpt>
      <trkpt lat="45.92857000" lon="6.186580000">
        <ele>573.00000</ele>
        <time>2010-06-23T04:16:00Z</time>
      </trkpt>
      <trkpt lat="45.92929000" lon="6.185430000">
        <ele>577.00000</ele>
        <time>2010-06-23T04:16:43Z</time>
      </trkpt>
      <trkpt lat="45.92933000" lon="6.185220000">
        <ele>568.00000</ele>
        <time>2010-06-23T04:16:50Z</time>
      </trkpt>
      <trkpt lat="45.92929000" lon="6.184970000">
        <ele>568.00000</ele>
        <time>2010-06-23T04:16:57Z</time>
      </trkpt>
      <trkpt lat="45.92916000" lon="6.184900000">
        <ele>568.00000</ele>
        <time>2010-06-23T04:17:02Z</time>
      </trkpt>
      <trkpt lat="45.92835000" lon="6.185340000">
        <ele>558.00000</ele>
        <time>2010-06-23T04:17:37Z</time>
      </trkpt>
      <trkpt lat="45.92822000" lon="6.185440000">
        <ele>566.00000</ele>
        <time>2010-06-23T04:17:43Z</time>
      </trkpt>
      <trkpt lat="45.92812000" lon="6.185590000">
        <ele>566.00000</ele>
        <time>2010-06-23T04:17:49Z</time>
      </trkpt>
      <trkpt lat="45.92803000" lon="6.185850000">
        <ele>566.00000</ele>
        <time>2010-06-23T04:17:57Z</time>
      </trkpt>
      <trkpt lat="45.92784000" lon="6.186430000">
        <ele>559.00000</ele>
        <time>2010-06-23T04:18:15Z</time>
      </trkpt>
      <trkpt lat="45.92714000" lon="6.187620000">
        <ele>564.00000</ele>
        <time>2010-06-23T04:18:58Z</time>
      </trkpt>
      <trkpt lat="45.92700000" lon="6.188100000">
        <ele>545.00000</ele>
        <time>2010-06-23T04:19:12Z</time>
      </trkpt>
      <trkpt lat="45.92682000" lon="6.188310000">
        <ele>545.00000</ele>
        <time>2010-06-23T04:19:22Z</time>
      </trkpt>
      <trkpt lat="45.92666000" lon="6.188300000">
        <ele>545.00000</ele>
        <time>2010-06-23T04:19:28Z</time>
      </trkpt>
      <trkpt lat="45.92659000" lon="6.188200000">
        <ele>545.00000</ele>
        <time>2010-06-23T04:19:32Z</time>
      </trkpt>
      <trkpt lat="45.92659000" lon="6.187890000">
        <ele>546.00000</ele>
        <time>2010-06-23T04:19:41Z</time>
      </trkpt>
      <trkpt lat="45.92670000" lon="6.187600000">
        <ele>546.00000</ele>
        <time>2010-06-23T04:19:50Z</time>
      </trkpt>
      <trkpt lat="45.92674000" lon="6.187340000">
        <ele>546.00000</ele>
        <time>2010-06-23T04:19:57Z</time>
      </trkpt>
      <trkpt lat="45.92649000" lon="6.186310000">
        <ele>543.00000</ele>
        <time>2010-06-23T04:20:28Z</time>
      </trkpt>
      <trkpt lat="45.92659000" lon="6.185280000">
        <ele>531.00000</ele>
        <time>2010-06-23T04:20:57Z</time>
      </trkpt>
      <trkpt lat="45.92665000" lon="6.185010000">
        <ele>531.00000</ele>
        <time>2010-06-23T04:21:05Z</time>
      </trkpt>
      <trkpt lat="45.92698000" lon="6.184170000">
        <ele>521.00000</ele>
        <time>2010-06-23T04:21:31Z</time>
      </trkpt>
      <trkpt lat="45.92723000" lon="6.183000000">
        <ele>526.00000</ele>
        <time>2010-06-23T04:22:05Z</time>
      </trkpt>
      <trkpt lat="45.92750000" lon="6.182360000">
        <ele>513.00000</ele>
        <time>2010-06-23T04:22:26Z</time>
      </trkpt>
      <trkpt lat="45.92779000" lon="6.181380000">
        <ele>501.00000</ele>
        <time>2010-06-23T04:22:56Z</time>
      </trkpt>
      <trkpt lat="45.92798000" lon="6.180870000">
        <ele>502.00000</ele>
        <time>2010-06-23T04:23:12Z</time>
      </trkpt>
      <trkpt lat="45.92811000" lon="6.180600000">
        <ele>502.00000</ele>
        <time>2010-06-23T04:23:21Z</time>
      </trkpt>
      <trkpt lat="45.92835000" lon="6.180250000">
        <ele>492.00000</ele>
        <time>2010-06-23T04:23:35Z</time>
      </trkpt>
      <trkpt lat="45.92845000" lon="6.179990000">
        <ele>492.00000</ele>
        <time>2010-06-23T04:23:43Z</time>
      </trkpt>
      <trkpt lat="45.92851000" lon="6.179740000">
        <ele>492.00000</ele>
        <time>2010-06-23T04:23:51Z</time>
      </trkpt>
      <trkpt lat="45.92832000" lon="6.179460000">
        <ele>483.00000</ele>
        <time>2010-06-23T04:24:01Z</time>
      </trkpt>
      <trkpt lat="45.92807000" lon="6.178920000">
        <ele>483.00000</ele>
        <time>2010-06-23T04:24:19Z</time>
      </trkpt>
      <trkpt lat="45.92796000" lon="6.178770000">
        <ele>483.00000</ele>
        <time>2010-06-23T04:24:26Z</time>
      </trkpt>
      <trkpt lat="45.92775000" lon="6.178650000">
        <ele>495.00000</ele>
        <time>2010-06-23T04:24:35Z</time>
      </trkpt>
      <trkpt lat="45.92720000" lon="6.178620000">
        <ele>495.00000</ele>
        <time>2010-06-23T04:24:57Z</time>
      </trkpt>
      <trkpt lat="45.92716000" lon="6.178470000">
        <ele>495.00000</ele>
        <time>2010-06-23T04:25:01Z</time>
      </trkpt>
      <trkpt lat="45.92720000" lon="6.178280000">
        <ele>495.00000</ele>
        <time>2010-06-23T04:25:07Z</time>
      </trkpt>
      <trkpt lat="45.92729000" lon="6.178240000">
        <ele>495.00000</ele>
        <time>2010-06-23T04:25:10Z</time>
      </trkpt>
      <trkpt lat="45.92755000" lon="6.178270000">
        <ele>495.00000</ele>
        <time>2010-06-23T04:25:21Z</time>
      </trkpt>
      <trkpt lat="45.92781000" lon="6.178390000">
        <ele>495.00000</ele>
        <time>2010-06-23T04:25:32Z</time>
      </trkpt>
      <trkpt lat="45.92806000" lon="6.178330000">
        <ele>484.00000</ele>
        <time>2010-06-23T04:25:42Z</time>
      </trkpt>
      <trkpt lat="45.92844000" lon="6.177850000">
        <ele>497.00000</ele>
        <time>2010-06-23T04:26:02Z</time>
      </trkpt>
      <trkpt lat="45.92850000" lon="6.177660000">
        <ele>497.00000</ele>
        <time>2010-06-23T04:26:08Z</time>
      </trkpt>
      <trkpt lat="45.92847000" lon="6.177500000">
        <ele>497.00000</ele>
        <time>2010-06-23T04:26:13Z</time>
      </trkpt>
      <trkpt lat="45.92833000" lon="6.177410000">
        <ele>497.00000</ele>
        <time>2010-06-23T04:26:19Z</time>
      </trkpt>
      <trkpt lat="45.92808000" lon="6.177720000">
        <ele>497.00000</ele>
        <time>2010-06-23T04:26:32Z</time>
      </trkpt>
      <trkpt lat="45.92791000" lon="6.177790000">
        <ele>509.00000</ele>
        <time>2010-06-23T04:26:39Z</time>
      </trkpt>
      <trkpt lat="45.92680000" lon="6.177490000">
        <ele>521.00000</ele>
        <time>2010-06-23T04:27:24Z</time>
      </trkpt>
      <trkpt lat="45.92668000" lon="6.177330000">
        <ele>521.00000</ele>
        <time>2010-06-23T04:27:31Z</time>
      </trkpt>
      <trkpt lat="45.92666000" lon="6.177200000">
        <ele>521.00000</ele>
        <time>2010-06-23T04:27:35Z</time>
      </trkpt>
      <trkpt lat="45.92668000" lon="6.177060000">
        <ele>537.00000</ele>
        <time>2010-06-23T04:27:38Z</time>
      </trkpt>
      <trkpt lat="45.92675000" lon="6.176930000">
        <ele>537.00000</ele>
        <time>2010-06-23T04:27:43Z</time>
      </trkpt>
      <trkpt lat="45.92748000" lon="6.176200000">
        <ele>541.00000</ele>
        <time>2010-06-23T04:28:19Z</time>
      </trkpt>
      <trkpt lat="45.92809000" lon="6.175940000">
        <ele>525.00000</ele>
        <time>2010-06-23T04:28:44Z</time>
      </trkpt>
      <trkpt lat="45.92815000" lon="6.175750000">
        <ele>525.00000</ele>
        <time>2010-06-23T04:28:50Z</time>
      </trkpt>
      <trkpt lat="45.92814000" lon="6.175580000">
        <ele>525.00000</ele>
        <time>2010-06-23T04:28:55Z</time>
      </trkpt>
      <trkpt lat="45.92809000" lon="6.175500000">
        <ele>525.00000</ele>
        <time>2010-06-23T04:28:58Z</time>
      </trkpt>
      <trkpt lat="45.92755000" lon="6.175410000">
        <ele>555.00000</ele>
        <time>2010-06-23T04:29:19Z</time>
      </trkpt>
      <trkpt lat="45.92718000" lon="6.175270000">
        <ele>555.00000</ele>
        <time>2010-06-23T04:29:35Z</time>
      </trkpt>
      <trkpt lat="45.92688000" lon="6.175220000">
        <ele>566.00000</ele>
        <time>2010-06-23T04:29:47Z</time>
      </trkpt>
      <trkpt lat="45.92592000" lon="6.175240000">
        <ele>572.00000</ele>
        <time>2010-06-23T04:30:25Z</time>
      </trkpt>
      <trkpt lat="45.92542000" lon="6.175360000">
        <ele>572.00000</ele>
        <time>2010-06-23T04:30:46Z</time>
      </trkpt>
      <trkpt lat="45.92528000" lon="6.175430000">
        <ele>561.00000</ele>
        <time>2010-06-23T04:30:52Z</time>
      </trkpt>
      <trkpt lat="45.92493000" lon="6.175770000">
        <ele>561.00000</ele>
        <time>2010-06-23T04:31:08Z</time>
      </trkpt>
      <trkpt lat="45.92479000" lon="6.175770000">
        <ele>561.00000</ele>
        <time>2010-06-23T04:31:14Z</time>
      </trkpt>
      <trkpt lat="45.92454000" lon="6.175490000">
        <ele>563.00000</ele>
        <time>2010-06-23T04:31:27Z</time>
      </trkpt>
      <trkpt lat="45.92423000" lon="6.175370000">
        <ele>572.00000</ele>
        <time>2010-06-23T04:31:40Z</time>
      </trkpt>
      <trkpt lat="45.92385000" lon="6.175120000">
        <ele>572.00000</ele>
        <time>2010-06-23T04:31:56Z</time>
      </trkpt>
      <trkpt lat="45.92361000" lon="6.174860000">
        <ele>574.00000</ele>
        <time>2010-06-23T04:32:08Z</time>
      </trkpt>
      <trkpt lat="45.92352000" lon="6.174690000">
        <ele>574.00000</ele>
        <time>2010-06-23T04:32:14Z</time>
      </trkpt>
      <trkpt lat="45.92350000" lon="6.174530000">
        <ele>579.00000</ele>
        <time>2010-06-23T04:32:19Z</time>
      </trkpt>
      <trkpt lat="45.92351000" lon="6.174140000">
        <ele>579.00000</ele>
        <time>2010-06-23T04:32:30Z</time>
      </trkpt>
      <trkpt lat="45.92362000" lon="6.174050000">
        <ele>579.00000</ele>
        <time>2010-06-23T04:32:35Z</time>
      </trkpt>
      <trkpt lat="45.92365000" lon="6.173950000">
        <ele>579.00000</ele>
        <time>2010-06-23T04:32:38Z</time>
      </trkpt>
      <trkpt lat="45.92362000" lon="6.173820000">
        <ele>579.00000</ele>
        <time>2010-06-23T04:32:42Z</time>
      </trkpt>
      <trkpt lat="45.92352000" lon="6.173730000">
        <ele>579.00000</ele>
        <time>2010-06-23T04:32:46Z</time>
      </trkpt>
      <trkpt lat="45.92338000" lon="6.173820000">
        <ele>579.00000</ele>
        <time>2010-06-23T04:32:52Z</time>
      </trkpt>
      <trkpt lat="45.92318000" lon="6.173620000">
        <ele>579.00000</ele>
        <time>2010-06-23T04:33:02Z</time>
      </trkpt>
      <trkpt lat="45.92275000" lon="6.172390000">
        <ele>578.00000</ele>
        <time>2010-06-23T04:33:41Z</time>
      </trkpt>
      <trkpt lat="45.92258000" lon="6.172120000">
        <ele>578.00000</ele>
        <time>2010-06-23T04:33:51Z</time>
      </trkpt>
      <trkpt lat="45.92222000" lon="6.171700000">
        <ele>574.00000</ele>
        <time>2010-06-23T04:34:09Z</time>
      </trkpt>
      <trkpt lat="45.92229000" lon="6.171640000">
        <ele>574.00000</ele>
        <time>2010-06-23T04:34:12Z</time>
      </trkpt>
      <trkpt lat="45.92222000" lon="6.171700000">
        <ele>574.00000</ele>
        <time>2010-06-23T04:34:16Z</time>
      </trkpt>
      <trkpt lat="45.92174000" lon="6.171150000">
        <ele>575.00000</ele>
        <time>2010-06-23T04:34:40Z</time>
      </trkpt>
      <trkpt lat="45.92169000" lon="6.170940000">
        <ele>575.00000</ele>
        <time>2010-06-23T04:34:46Z</time>
      </trkpt>
      <trkpt lat="45.92168000" lon="6.170390000">
        <ele>572.00000</ele>
        <time>2010-06-23T04:35:02Z</time>
      </trkpt>
      <trkpt lat="45.92178000" lon="6.169300000">
        <ele>569.00000</ele>
        <time>2010-06-23T04:35:32Z</time>
      </trkpt>
      <trkpt lat="45.92195000" lon="6.168010000">
        <ele>566.00000</ele>
        <time>2010-06-23T04:36:09Z</time>
      </trkpt>
      <trkpt lat="45.92233000" lon="6.166960000">
        <ele>560.00000</ele>
        <time>2010-06-23T04:36:42Z</time>
      </trkpt>
      <trkpt lat="45.92250000" lon="6.166400000">
        <ele>560.00000</ele>
        <time>2010-06-23T04:36:59Z</time>
      </trkpt>
      <trkpt lat="45.92255000" lon="6.166060000">
        <ele>558.00000</ele>
        <time>2010-06-23T04:37:09Z</time>
      </trkpt>
      <trkpt lat="45.92264000" lon="6.165860000">
        <ele>558.00000</ele>
        <time>2010-06-23T04:37:15Z</time>
      </trkpt>
      <trkpt lat="45.92278000" lon="6.165810000">
        <ele>558.00000</ele>
        <time>2010-06-23T04:37:21Z</time>
      </trkpt>
      <trkpt lat="45.92297000" lon="6.165800000">
        <ele>554.00000</ele>
        <time>2010-06-23T04:37:29Z</time>
      </trkpt>
      <trkpt lat="45.92302000" lon="6.165710000">
        <ele>554.00000</ele>
        <time>2010-06-23T04:37:32Z</time>
      </trkpt>
      <trkpt lat="45.92298000" lon="6.165300000">
        <ele>553.00000</ele>
        <time>2010-06-23T04:37:43Z</time>
      </trkpt>
      <trkpt lat="45.92280000" lon="6.165050000">
        <ele>556.00000</ele>
        <time>2010-06-23T04:37:53Z</time>
      </trkpt>
      <trkpt lat="45.92269000" lon="6.165060000">
        <ele>556.00000</ele>
        <time>2010-06-23T04:37:58Z</time>
      </trkpt>
      <trkpt lat="45.92261000" lon="6.165150000">
        <ele>556.00000</ele>
        <time>2010-06-23T04:38:02Z</time>
      </trkpt>
      <trkpt lat="45.92260000" lon="6.165390000">
        <ele>556.00000</ele>
        <time>2010-06-23T04:38:09Z</time>
      </trkpt>
      <trkpt lat="45.92114000" lon="6.164870000">
        <ele>555.00000</ele>
        <time>2010-06-23T04:39:09Z</time>
      </trkpt>
      <trkpt lat="45.92108000" lon="6.164840000">
        <ele>555.00000</ele>
        <time>2010-06-23T04:39:11Z</time>
      </trkpt>
      <trkpt lat="45.92099000" lon="6.164680000">
        <ele>555.00000</ele>
        <time>2010-06-23T04:39:17Z</time>
      </trkpt>
      <trkpt lat="45.91957000" lon="6.159460000">
        <ele>522.00000</ele>
        <time>2010-06-23T04:41:53Z</time>
      </trkpt>
      <trkpt lat="45.91970000" lon="6.159430000">
        <ele>528.00000</ele>
        <time>2010-06-23T04:41:58Z</time>
      </trkpt>
      <trkpt lat="45.91974000" lon="6.159270000">
        <ele>528.00000</ele>
        <time>2010-06-23T04:42:03Z</time>
      </trkpt>
      <trkpt lat="45.91965000" lon="6.159130000">
        <ele>528.00000</ele>
        <time>2010-06-23T04:42:08Z</time>
      </trkpt>
      <trkpt lat="45.91953000" lon="6.159160000">
        <ele>522.00000</ele>
        <time>2010-06-23T04:42:13Z</time>
      </trkpt>
      <trkpt lat="45.91951000" lon="6.159210000">
        <ele>522.00000</ele>
        <time>2010-06-23T04:42:15Z</time>
      </trkpt>
      <trkpt lat="45.91890000" lon="6.157150000">
        <ele>514.00000</ele>
        <time>2010-06-23T04:43:17Z</time>
      </trkpt>
      <trkpt lat="45.91886000" lon="6.157010000">
        <ele>513.00000</ele>
        <time>2010-06-23T04:43:22Z</time>
      </trkpt>
      <trkpt lat="45.91885000" lon="6.156640000">
        <ele>513.00000</ele>
        <time>2010-06-23T04:43:32Z</time>
      </trkpt>
      <trkpt lat="45.91898000" lon="6.156080000">
        <ele>514.00000</ele>
        <time>2010-06-23T04:43:48Z</time>
      </trkpt>
      <trkpt lat="45.91899000" lon="6.155780000">
        <ele>514.00000</ele>
        <time>2010-06-23T04:43:57Z</time>
      </trkpt>
      <trkpt lat="45.91914000" lon="6.155720000">
        <ele>514.00000</ele>
        <time>2010-06-23T04:44:03Z</time>
      </trkpt>
      <trkpt lat="45.91916000" lon="6.155530000">
        <ele>514.00000</ele>
        <time>2010-06-23T04:44:08Z</time>
      </trkpt>
      <trkpt lat="45.91912000" lon="6.155450000">
        <ele>514.00000</ele>
        <time>2010-06-23T04:44:11Z</time>
      </trkpt>
      <trkpt lat="45.91898000" lon="6.155440000">
        <ele>514.00000</ele>
        <time>2010-06-23T04:44:17Z</time>
      </trkpt>
      <trkpt lat="45.91891000" lon="6.155560000">
        <ele>514.00000</ele>
        <time>2010-06-23T04:44:21Z</time>
      </trkpt>
      <trkpt lat="45.91875000" lon="6.155520000">
        <ele>514.00000</ele>
        <time>2010-06-23T04:44:27Z</time>
      </trkpt>
      <trkpt lat="45.91866000" lon="6.155550000">
        <ele>505.00000</ele>
        <time>2010-06-23T04:44:31Z</time>
      </trkpt>
      <trkpt lat="45.91826000" lon="6.155890000">
        <ele>505.00000</ele>
        <time>2010-06-23T04:44:50Z</time>
      </trkpt>
      <trkpt lat="45.91800000" lon="6.155960000">
        <ele>505.00000</ele>
        <time>2010-06-23T04:45:00Z</time>
      </trkpt>
      <trkpt lat="45.91780000" lon="6.155940000">
        <ele>497.00000</ele>
        <time>2010-06-23T04:45:08Z</time>
      </trkpt>
      <trkpt lat="45.91734000" lon="6.155730000">
        <ele>497.00000</ele>
        <time>2010-06-23T04:45:28Z</time>
      </trkpt>
      <trkpt lat="45.91714000" lon="6.155480000">
        <ele>497.00000</ele>
        <time>2010-06-23T04:45:38Z</time>
      </trkpt>
      <trkpt lat="45.91709000" lon="6.155280000">
        <ele>495.00000</ele>
        <time>2010-06-23T04:45:44Z</time>
      </trkpt>
      <trkpt lat="45.91709000" lon="6.154980000">
        <ele>495.00000</ele>
        <time>2010-06-23T04:45:53Z</time>
      </trkpt>
      <trkpt lat="45.91719000" lon="6.154400000">
        <ele>492.00000</ele>
        <time>2010-06-23T04:46:09Z</time>
      </trkpt>
      <trkpt lat="45.91732000" lon="6.153250000">
        <ele>488.00000</ele>
        <time>2010-06-23T04:46:42Z</time>
      </trkpt>
      <trkpt lat="45.91721000" lon="6.152220000">
        <ele>485.00000</ele>
        <time>2010-06-23T04:47:11Z</time>
      </trkpt>
      <trkpt lat="45.91704000" lon="6.151700000">
        <ele>477.00000</ele>
        <time>2010-06-23T04:47:27Z</time>
      </trkpt>
      <trkpt lat="45.91706000" lon="6.151610000">
        <ele>477.00000</ele>
        <time>2010-06-23T04:47:29Z</time>
      </trkpt>
      <trkpt lat="45.91700000" lon="6.151590000">
        <ele>477.00000</ele>
        <time>2010-06-23T04:47:32Z</time>
      </trkpt>
      <trkpt lat="45.91685000" lon="6.151140000">
        <ele>474.00000</ele>
        <time>2010-06-23T04:47:46Z</time>
      </trkpt>
      <trkpt lat="45.91667000" lon="6.150380000">
        <ele>470.00000</ele>
        <time>2010-06-23T04:48:08Z</time>
      </trkpt>
      <trkpt lat="45.91645000" lon="6.149660000">
        <ele>470.00000</ele>
        <time>2010-06-23T04:48:30Z</time>
      </trkpt>
      <trkpt lat="45.91621000" lon="6.149190000">
        <ele>462.00000</ele>
        <time>2010-06-23T04:48:46Z</time>
      </trkpt>
      <trkpt lat="45.91599000" lon="6.148950000">
        <ele>462.00000</ele>
        <time>2010-06-23T04:48:57Z</time>
      </trkpt>
      <trkpt lat="45.91596000" lon="6.148830000">
        <ele>462.00000</ele>
        <time>2010-06-23T04:49:01Z</time>
      </trkpt>
      <trkpt lat="45.91596000" lon="6.148110000">
        <ele>463.00000</ele>
        <time>2010-06-23T04:49:21Z</time>
      </trkpt>
      <trkpt lat="45.91600000" lon="6.147470000">
        <ele>466.00000</ele>
        <time>2010-06-23T04:49:39Z</time>
      </trkpt>
      <trkpt lat="45.91535000" lon="6.147060000">
        <ele>464.00000</ele>
        <time>2010-06-23T04:50:07Z</time>
      </trkpt>
      <trkpt lat="45.91508000" lon="6.146740000">
        <ele>464.00000</ele>
        <time>2010-06-23T04:50:21Z</time>
      </trkpt>
      <trkpt lat="45.91484000" lon="6.146270000">
        <ele>464.00000</ele>
        <time>2010-06-23T04:50:37Z</time>
      </trkpt>
      <trkpt lat="45.91427000" lon="6.144740000">
        <ele>458.00000</ele>
        <time>2010-06-23T04:51:26Z</time>
      </trkpt>
      <trkpt lat="45.91399000" lon="6.144110000">
        <ele>457.00000</ele>
        <time>2010-06-23T04:51:47Z</time>
      </trkpt>
      <trkpt lat="45.91336000" lon="6.143100000">
        <ele>456.00000</ele>
        <time>2010-06-23T04:52:24Z</time>
      </trkpt>
      <trkpt lat="45.91334000" lon="6.142970000">
        <ele>456.00000</ele>
        <time>2010-06-23T04:52:28Z</time>
      </trkpt>
      <trkpt lat="45.91323000" lon="6.142970000">
        <ele>456.00000</ele>
        <time>2010-06-23T04:52:32Z</time>
      </trkpt>
      <trkpt lat="45.91234000" lon="6.141560000">
        <ele>455.00000</ele>
        <time>2010-06-23T04:53:25Z</time>
      </trkpt>
      <trkpt lat="45.91048000" lon="6.138100000">
        <ele>452.00000</ele>
        <time>2010-06-23T04:55:27Z</time>
      </trkpt>
      <trkpt lat="45.91032000" lon="6.137810000">
        <ele>452.00000</ele>
        <time>2010-06-23T04:55:38Z</time>
      </trkpt>
      <trkpt lat="45.90673000" lon="6.141240000">
        <ele>447.00000</ele>
        <time>2010-06-23T04:58:30Z</time>
      </trkpt>
      <trkpt lat="45.90533000" lon="6.142520000">
        <ele>446.00000</ele>
        <time>2010-06-23T04:59:37Z</time>
      </trkpt>
      <trkpt lat="45.90511000" lon="6.142650000">
        <ele>446.00000</ele>
        <time>2010-06-23T04:59:46Z</time>
      </trkpt>
      <trkpt lat="45.90513000" lon="6.142810000">
        <ele>446.00000</ele>
        <time>2010-06-23T04:59:51Z</time>
      </trkpt>
      <trkpt lat="45.90520000" lon="6.142780000">
        <ele>446.00000</ele>
        <time>2010-06-23T04:59:53Z</time>
      </trkpt>
      <trkpt lat="45.90566000" lon="6.142340000">
        <ele>447.00000</ele>
        <time>2010-06-23T05:00:16Z</time>
      </trkpt>
    </trkseg>
  </trk>
</gpx>

